Observation data for Palo Duro Reservoir 1NW on 10/18/2019      Previous  Date       Current Mesonet Observations  Soil Data  Daily Summary Page  Observations in Plain Language
KPD4 180500Z 18021G27KT 17/04 A2975 RMK A01 T01690036  RH  041%=      5-min Rain = 0
KPD4 180501Z 18022KT 17/04 A2975 RMK A01 T01690035  RH  041%=      5-min Rain = 0
KPD4 180502Z 18020G26KT 17/04 A2975 RMK A01 T01700035  RH  041%=      5-min Rain = 0
KPD4 180503Z 18018KT 17/04 A2975 RMK A01 T01700035  RH  040%=      5-min Rain = 0
KPD4 180504Z 18021KT 17/03 A2974 RMK A01 T01690034  RH  041%=      5-min Rain = 0
KPD4 180505Z 19017G23KT 17/03 A2975 RMK A01 T01690034  RH  040%=      5-min Rain = 0
KPD4 180506Z 19018KT 17/03 A2975 RMK A01 T01690034  RH  040%=      5-min Rain = 0
KPD4 180507Z 18019KT 17/03 A2975 RMK A01 T01690034  RH  041%=      5-min Rain = 0
KPD4 180508Z 18017KT 17/03 A2975 RMK A01 T01680033  RH  041%=      5-min Rain = 0
KPD4 180509Z 18017G22KT 17/03 A2975 RMK A01 T01670033  RH  041%=      5-min Rain = 0
KPD4 180510Z 19015KT 17/03 A2975 RMK A01 T01670033  RH  041%=      5-min Rain = 0
KPD4 180511Z 19016KT 17/03 A2975 RMK A01 T01660033  RH  041%=      5-min Rain = 0
KPD4 180512Z 19016KT 17/03 A2975 RMK A01 T01660033  RH  041%=      5-min Rain = 0
KPD4 180513Z 19016KT 17/03 A2975 RMK A01 T01650032  RH  041%=      5-min Rain = 0
KPD4 180514Z 20013KT 17/03 A2975 RMK A01 T01650032  RH  041%=      5-min Rain = 0
KPD4 180515Z 20011KT 16/03 A2975 RMK A01 T01640032  RH  041%=      5-min Rain = 0
KPD4 180516Z 19012KT 16/03 A2975 RMK A01 T01630032  RH  042%=      5-min Rain = 0
KPD4 180517Z 20014KT 16/03 A2975 RMK A01 T01620032  RH  042%=      5-min Rain = 0
KPD4 180518Z 19016KT 16/03 A2975 RMK A01 T01620032  RH  042%=      5-min Rain = 0
KPD4 180519Z 20014KT 16/03 A2975 RMK A01 T01620032  RH  042%=      5-min Rain = 0
KPD4 180520Z 20016G22KT 16/03 A2975 RMK A01 T01620031  RH  042%=      5-min Rain = 0
KPD4 180521Z 19013KT 16/03 A2975 RMK A01 T01620031  RH  041%=      5-min Rain = 0
KPD4 180522Z 20013KT 16/03 A2975 RMK A01 T01630031  RH  041%=      5-min Rain = 0
KPD4 180523Z 20013KT 16/03 A2975 RMK A01 T01610031  RH  042%=      5-min Rain = 0
KPD4 180524Z 20014KT 16/03 A2975 RMK A01 T01600031  RH  042%=      5-min Rain = 0
KPD4 180525Z 20014KT 16/03 A2975 RMK A01 T01600031  RH  042%=      5-min Rain = 0
KPD4 180526Z 19014KT 16/03 A2975 RMK A01 T01600031  RH  042%=      5-min Rain = 0
KPD4 180527Z 20012KT 16/03 A2975 RMK A01 T01590030  RH  042%=      5-min Rain = 0
KPD4 180528Z 19013KT 16/03 A2975 RMK A01 T01590030  RH  042%=      5-min Rain = 0
KPD4 180529Z 20012KT 16/03 A2975 RMK A01 T01590030  RH  042%=      5-min Rain = 0
KPD4 180530Z 19011KT 16/03 A2975 RMK A01 T01580030  RH  042%=      5-min Rain = 0
KPD4 180531Z 19012KT 16/03 A2975 RMK A01 T01570030  RH  042%=      5-min Rain = 0
KPD4 180532Z 19014KT 16/03 A2975 RMK A01 T01570030  RH  042%=      5-min Rain = 0
KPD4 180533Z 19013G18KT 16/03 A2975 RMK A01 T01580029  RH  042%=      5-min Rain = 0
KPD4 180534Z 20014KT 16/03 A2975 RMK A01 T01580029  RH  042%=      5-min Rain = 0
KPD4 180535Z 19015G20KT 16/03 A2975 RMK A01 T01580029  RH  042%=      5-min Rain = 0
KPD4 180536Z 19013KT 16/03 A2975 RMK A01 T01590029  RH  042%=      5-min Rain = 0
KPD4 180537Z 19015KT 16/03 A2975 RMK A01 T01590028  RH  042%=      5-min Rain = 0
KPD4 180538Z 19013KT 16/03 A2975 RMK A01 T01590028  RH  041%=      5-min Rain = 0
KPD4 180539Z 20014KT 16/03 A2975 RMK A01 T01590028  RH  042%=      5-min Rain = 0
KPD4 180540Z 20012KT 16/03 A2975 RMK A01 T01580028  RH  042%=      5-min Rain = 0
KPD4 180541Z 19014KT 16/03 A2975 RMK A01 T01580028  RH  042%=      5-min Rain = 0
KPD4 180542Z 19013KT 16/03 A2975 RMK A01 T01570028  RH  042%=      5-min Rain = 0
KPD4 180543Z 19011KT 16/03 A2975 RMK A01 T01560028  RH  042%=      5-min Rain = 0
KPD4 180544Z 20011KT 16/03 A2975 RMK A01 T01560028  RH  042%=      5-min Rain = 0
KPD4 180545Z 19012KT 16/03 A2975 RMK A01 T01550028  RH  042%=      5-min Rain = 0
KPD4 180546Z 19014KT 15/03 A2975 RMK A01 T01540028  RH  043%=      5-min Rain = 0
KPD4 180547Z 19013KT 16/03 A2975 RMK A01 T01550028  RH  043%=      5-min Rain = 0
KPD4 180548Z 19014KT 16/03 A2975 RMK A01 T01550028  RH  042%=      5-min Rain = 0
KPD4 180549Z 19015KT 16/03 A2974 RMK A01 T01550028  RH  042%=      5-min Rain = 0
KPD4 180550Z 19015KT 16/03 A2974 RMK A01 T01560028  RH  042%=      5-min Rain = 0
KPD4 180551Z 19015KT 16/03 A2974 RMK A01 T01570028  RH  042%=      5-min Rain = 0
KPD4 180552Z 19016KT 16/03 A2974 RMK A01 T01570028  RH  042%=      5-min Rain = 0
KPD4 180553Z 19015KT 16/03 A2974 RMK A01 T01570029  RH  042%=      5-min Rain = 0
KPD4 180554Z 19015KT 16/03 A2974 RMK A01 T01580029  RH  042%=      5-min Rain = 0
KPD4 180555Z 19014KT 16/03 A2974 RMK A01 T01570029  RH  042%=      5-min Rain = 0
KPD4 180556Z 19014KT 16/03 A2974 RMK A01 T01570029  RH  042%=      5-min Rain = 0
KPD4 180557Z 19017KT 16/03 A2974 RMK A01 T01560030  RH  043%=      5-min Rain = 0
KPD4 180558Z 19017KT 16/03 A2974 RMK A01 T01560030  RH  043%=      5-min Rain = 0
KPD4 180559Z 18017KT 16/03 A2974 RMK A01 T01570030  RH  043%=      5-min Rain = 0
KPD4 180600Z 19016KT 16/03 A2974 RMK A01 T01570031  RH  043%=      5-min Rain = 0
KPD4 180601Z 19018KT 16/03 A2974 RMK A01 T01570031  RH  043%=      5-min Rain = 0
KPD4 180602Z 18019KT 16/03 A2974 RMK A01 T01580032  RH  043%=      5-min Rain = 0
KPD4 180603Z 19020KT 16/03 A2974 RMK A01 T01580032  RH  043%=      5-min Rain = 0
KPD4 180604Z 18017KT 16/03 A2974 RMK A01 T01590033  RH  043%=      5-min Rain = 0
KPD4 180605Z 19019G24KT 16/03 A2974 RMK A01 T01590033  RH  043%=      5-min Rain = 0
KPD4 180606Z 19019KT 16/03 A2974 RMK A01 T01590033  RH  043%=      5-min Rain = 0
KPD4 180607Z 19018KT 16/03 A2974 RMK A01 T01580033  RH  043%=      5-min Rain = 0
KPD4 180608Z 19017KT 16/03 A2974 RMK A01 T01580034  RH  043%=      5-min Rain = 0
KPD4 180609Z 18017KT 16/03 A2974 RMK A01 T01580034  RH  044%=      5-min Rain = 0
KPD4 180610Z 19016KT 16/04 A2974 RMK A01 T01570035  RH  044%=      5-min Rain = 0
KPD4 180611Z 19018KT 16/04 A2974 RMK A01 T01570035  RH  044%=      5-min Rain = 0
KPD4 180612Z 18017KT 16/04 A2974 RMK A01 T01570036  RH  044%=      5-min Rain = 0
KPD4 180613Z 19015KT 16/04 A2974 RMK A01 T01570036  RH  044%=      5-min Rain = 0
KPD4 180614Z 18016KT 16/04 A2974 RMK A01 T01570036  RH  045%=      5-min Rain = 0
KPD4 180615Z 18017KT 16/04 A2974 RMK A01 T01560037  RH  045%=      5-min Rain = 0
KPD4 180616Z 18018KT 16/04 A2974 RMK A01 T01560037  RH  045%=      5-min Rain = 0
KPD4 180617Z 18016KT 16/04 A2974 RMK A01 T01560038  RH  045%=      5-min Rain = 0
KPD4 180618Z 19016KT 16/04 A2974 RMK A01 T01560038  RH  045%=      5-min Rain = 0
KPD4 180619Z 19015KT 16/04 A2974 RMK A01 T01560038  RH  045%=      5-min Rain = 0
KPD4 180620Z 19017KT 16/04 A2974 RMK A01 T01550038  RH  046%=      5-min Rain = 0
KPD4 180621Z 19016KT 16/04 A2974 RMK A01 T01550039  RH  046%=      5-min Rain = 0
KPD4 180622Z 19014KT 16/04 A2974 RMK A01 T01550039  RH  046%=      5-min Rain = 0
KPD4 180623Z 19016KT 15/04 A2974 RMK A01 T01540039  RH  046%=      5-min Rain = 0
KPD4 180624Z 19016KT 15/04 A2974 RMK A01 T01540040  RH  046%=      5-min Rain = 0
KPD4 180625Z 19014KT 15/04 A2974 RMK A01 T01540040  RH  047%=      5-min Rain = 0
KPD4 180626Z 19015KT 15/04 A2974 RMK A01 T01530041  RH  047%=      5-min Rain = 0
KPD4 180627Z 18016KT 15/04 A2974 RMK A01 T01530041  RH  047%=      5-min Rain = 0
KPD4 180628Z 19015G20KT 15/04 A2974 RMK A01 T01530041  RH  047%=      5-min Rain = 0
KPD4 180629Z 19015KT 15/04 A2973 RMK A01 T01520042  RH  048%=      5-min Rain = 0
KPD4 180630Z 19014KT 15/04 A2973 RMK A01 T01520042  RH  048%=      5-min Rain = 0
KPD4 180631Z 19013KT 15/04 A2973 RMK A01 T01520043  RH  048%=      5-min Rain = 0
KPD4 180632Z 19015KT 15/04 A2973 RMK A01 T01510043  RH  048%=      5-min Rain = 0
KPD4 180633Z 19017KT 15/04 A2973 RMK A01 T01520044  RH  048%=      5-min Rain = 0
KPD4 180634Z 19014KT 15/04 A2973 RMK A01 T01520044  RH  049%=      5-min Rain = 0
KPD4 180635Z 18016KT 15/05 A2973 RMK A01 T01520045  RH  049%=      5-min Rain = 0
KPD4 180636Z 19013KT 15/05 A2973 RMK A01 T01520045  RH  049%=      5-min Rain = 0
KPD4 180637Z 19015KT 15/05 A2973 RMK A01 T01510045  RH  049%=      5-min Rain = 0
KPD4 180638Z 18014KT 15/05 A2973 RMK A01 T01510046  RH  049%=      5-min Rain = 0
KPD4 180639Z 19015KT 15/05 A2973 RMK A01 T01510046  RH  049%=      5-min Rain = 0
KPD4 180640Z 18015KT 15/05 A2973 RMK A01 T01510046  RH  050%=      5-min Rain = 0
KPD4 180641Z 19016KT 15/05 A2973 RMK A01 T01510047  RH  050%=      5-min Rain = 0
KPD4 180642Z 18015KT 15/05 A2973 RMK A01 T01520047  RH  050%=      5-min Rain = 0
KPD4 180643Z 19016KT 15/05 A2973 RMK A01 T01520047  RH  050%=      5-min Rain = 0
KPD4 180644Z 19015KT 15/05 A2973 RMK A01 T01510047  RH  050%=      5-min Rain = 0
KPD4 180645Z 19015KT 15/05 A2973 RMK A01 T01520048  RH  050%=      5-min Rain = 0
KPD4 180646Z 19014G19KT 15/05 A2972 RMK A01 T01510048  RH  050%=      5-min Rain = 0
KPD4 180647Z 19015KT 15/05 A2972 RMK A01 T01510048  RH  050%=      5-min Rain = 0
KPD4 180648Z 19015KT 15/05 A2972 RMK A01 T01510049  RH  050%=      5-min Rain = 0
KPD4 180649Z 19015KT 15/05 A2972 RMK A01 T01500049  RH  051%=      5-min Rain = 0
KPD4 180650Z 19015G20KT 15/05 A2972 RMK A01 T01500049  RH  051%=      5-min Rain = 0
KPD4 180651Z 19016KT 15/05 A2972 RMK A01 T01500049  RH  051%=      5-min Rain = 0
KPD4 180652Z 19016KT 15/05 A2973 RMK A01 T01510050  RH  051%=      5-min Rain = 0
KPD4 180653Z 19015KT 15/05 A2973 RMK A01 T01510050  RH  051%=      5-min Rain = 0
KPD4 180654Z 19015KT 15/05 A2973 RMK A01 T01500050  RH  051%=      5-min Rain = 0
KPD4 180655Z 19014KT 15/05 A2973 RMK A01 T01500050  RH  051%=      5-min Rain = 0
KPD4 180656Z 19016KT 15/05 A2973 RMK A01 T01500050  RH  051%=      5-min Rain = 0
KPD4 180657Z 19015KT 15/05 A2973 RMK A01 T01500050  RH  051%=      5-min Rain = 0
KPD4 180658Z 19016KT 15/05 A2973 RMK A01 T01500051  RH  051%=      5-min Rain = 0
KPD4 180659Z 19015KT 15/05 A2973 RMK A01 T01500051  RH  052%=      5-min Rain = 0
KPD4 180700Z 19017KT 15/05 A2973 RMK A01 T01500051  RH  052%=      5-min Rain = 0
KPD4 180701Z 19014KT 15/05 A2973 RMK A01 T01500052  RH  052%=      5-min Rain = 0
KPD4 180702Z 19015KT 15/05 A2973 RMK A01 T01500051  RH  052%=      5-min Rain = 0
KPD4 180703Z 19014KT 15/05 A2973 RMK A01 T01500052  RH  052%=      5-min Rain = 0
KPD4 180704Z 19015KT 15/05 A2973 RMK A01 T01490052  RH  052%=      5-min Rain = 0
KPD4 180705Z 19015KT 15/05 A2973 RMK A01 T01490052  RH  052%=      5-min Rain = 0
KPD4 180706Z 18015KT 15/05 A2973 RMK A01 T01490052  RH  052%=      5-min Rain = 0
KPD4 180707Z 18014KT 15/05 A2973 RMK A01 T01490052  RH  052%=      5-min Rain = 0
KPD4 180708Z 19015KT 15/05 A2973 RMK A01 T01490052  RH  052%=      5-min Rain = 0
KPD4 180709Z 18017KT 15/05 A2973 RMK A01 T01490053  RH  052%=      5-min Rain = 0
KPD4 180710Z 18016KT 15/05 A2973 RMK A01 T01490053  RH  052%=      5-min Rain = 0
KPD4 180711Z 18015KT 15/05 A2973 RMK A01 T01490052  RH  052%=      5-min Rain = 0
KPD4 180712Z 18014KT 15/05 A2973 RMK A01 T01480052  RH  052%=      5-min Rain = 0
KPD4 180713Z 18015KT 15/05 A2973 RMK A01 T01480052  RH  053%=      5-min Rain = 0
KPD4 180714Z 18015KT 15/05 A2973 RMK A01 T01470052  RH  053%=      5-min Rain = 0
KPD4 180715Z 18015KT 15/05 A2972 RMK A01 T01460052  RH  053%=      5-min Rain = 0
KPD4 180716Z 18015KT 15/05 A2972 RMK A01 T01460052  RH  053%=      5-min Rain = 0
KPD4 180717Z 18015KT 15/05 A2972 RMK A01 T01460052  RH  053%=      5-min Rain = 0
KPD4 180718Z 18015KT 15/05 A2972 RMK A01 T01460053  RH  053%=      5-min Rain = 0
KPD4 180719Z 18014KT 15/05 A2972 RMK A01 T01460053  RH  053%=      5-min Rain = 0
KPD4 180720Z 19014KT 15/05 A2973 RMK A01 T01460053  RH  054%=      5-min Rain = 0
KPD4 180721Z 18014KT 15/05 A2972 RMK A01 T01450053  RH  054%=      5-min Rain = 0
KPD4 180722Z 18015KT 15/05 A2973 RMK A01 T01450053  RH  054%=      5-min Rain = 0
KPD4 180723Z 18014KT 15/05 A2973 RMK A01 T01450053  RH  054%=      5-min Rain = 0
KPD4 180724Z 18015KT 15/05 A2972 RMK A01 T01450053  RH  054%=      5-min Rain = 0
KPD4 180725Z 18015KT 15/05 A2972 RMK A01 T01450054  RH  054%=      5-min Rain = 0
KPD4 180726Z 18015KT 15/05 A2972 RMK A01 T01450054  RH  054%=      5-min Rain = 0
KPD4 180727Z 18013KT 15/05 A2972 RMK A01 T01450054  RH  054%=      5-min Rain = 0
KPD4 180728Z 18013KT 15/05 A2972 RMK A01 T01450054  RH  055%=      5-min Rain = 0
KPD4 180729Z 18014KT 14/05 A2972 RMK A01 T01440054  RH  055%=      5-min Rain = 0
KPD4 180730Z 18014KT 14/05 A2972 RMK A01 T01430054  RH  055%=      5-min Rain = 0
KPD4 180731Z 18014KT 14/06 A2972 RMK A01 T01430055  RH  055%=      5-min Rain = 0
KPD4 180732Z 18013KT 14/06 A2972 RMK A01 T01430055  RH  055%=      5-min Rain = 0
KPD4 180733Z 19015KT 14/06 A2972 RMK A01 T01430055  RH  055%=      5-min Rain = 0
KPD4 180734Z 19014KT 14/06 A2972 RMK A01 T01440056  RH  055%=      5-min Rain = 0
KPD4 180735Z 18016KT 14/06 A2972 RMK A01 T01440056  RH  056%=      5-min Rain = 0
KPD4 180736Z 18015KT 15/06 A2972 RMK A01 T01450057  RH  055%=      5-min Rain = 0
KPD4 180737Z 19015KT 15/06 A2972 RMK A01 T01460057  RH  055%=      5-min Rain = 0
KPD4 180738Z 19015KT 15/06 A2972 RMK A01 T01460058  RH  055%=      5-min Rain = 0
KPD4 180739Z 18015KT 15/06 A2972 RMK A01 T01460058  RH  055%=      5-min Rain = 0
KPD4 180740Z 19016KT 15/06 A2972 RMK A01 T01470058  RH  055%=      5-min Rain = 0
KPD4 180741Z 19017KT 15/06 A2972 RMK A01 T01470059  RH  056%=      5-min Rain = 0
KPD4 180742Z 19016KT 15/06 A2972 RMK A01 T01470059  RH  056%=      5-min Rain = 0
KPD4 180743Z 19015KT 15/06 A2972 RMK A01 T01480059  RH  055%=      5-min Rain = 0
KPD4 180744Z 19016KT 15/06 A2973 RMK A01 T01480060  RH  055%=      5-min Rain = 0
KPD4 180745Z 19016KT 15/06 A2973 RMK A01 T01480060  RH  055%=      5-min Rain = 0
KPD4 180746Z 19017G22KT 15/06 A2973 RMK A01 T01480060  RH  055%=      5-min Rain = 0
KPD4 180747Z 19016KT 15/06 A2973 RMK A01 T01490060  RH  055%=      5-min Rain = 0
KPD4 180748Z 19017KT 15/06 A2972 RMK A01 T01490060  RH  055%=      5-min Rain = 0
KPD4 180749Z 19015KT 15/06 A2973 RMK A01 T01490061  RH  055%=      5-min Rain = 0
KPD4 180750Z 19015KT 15/06 A2973 RMK A01 T01490061  RH  055%=      5-min Rain = 0
KPD4 180751Z 19015KT 15/06 A2973 RMK A01 T01490061  RH  055%=      5-min Rain = 0
KPD4 180752Z 19016KT 15/06 A2973 RMK A01 T01490061  RH  055%=      5-min Rain = 0
KPD4 180753Z 19016KT 15/06 A2973 RMK A01 T01490061  RH  056%=      5-min Rain = 0
KPD4 180754Z 19016KT 15/06 A2973 RMK A01 T01490061  RH  056%=      5-min Rain = 0
KPD4 180755Z 19015G20KT 15/06 A2973 RMK A01 T01500062  RH  056%=      5-min Rain = 0
KPD4 180756Z 19016KT 15/06 A2973 RMK A01 T01500062  RH  056%=      5-min Rain = 0
KPD4 180757Z 19016KT 15/06 A2973 RMK A01 T01500062  RH  056%=      5-min Rain = 0
KPD4 180758Z 19016KT 15/06 A2973 RMK A01 T01500062  RH  056%=      5-min Rain = 0
KPD4 180759Z 19016KT 15/06 A2973 RMK A01 T01500062  RH  056%=      5-min Rain = 0
KPD4 180800Z 19016KT 15/06 A2973 RMK A01 T01500063  RH  056%=      5-min Rain = 0
KPD4 180801Z 19016KT 15/06 A2973 RMK A01 T01510063  RH  056%=      5-min Rain = 0
KPD4 180802Z 19016KT 15/06 A2973 RMK A01 T01510063  RH  056%=      5-min Rain = 0
KPD4 180803Z 19017KT 15/06 A2973 RMK A01 T01510063  RH  056%=      5-min Rain = 0
KPD4 180804Z 19017KT 15/06 A2973 RMK A01 T01510064  RH  056%=      5-min Rain = 0
KPD4 180805Z 19016KT 15/06 A2973 RMK A01 T01520064  RH  056%=      5-min Rain = 0
KPD4 180806Z 19017KT 15/06 A2973 RMK A01 T01520064  RH  056%=      5-min Rain = 0
KPD4 180807Z 19013KT 15/06 A2973 RMK A01 T01520064  RH  056%=      5-min Rain = 0
KPD4 180808Z 19015KT 15/06 A2973 RMK A01 T01510064  RH  056%=      5-min Rain = 0
KPD4 180809Z 19016KT 15/06 A2973 RMK A01 T01510064  RH  056%=      5-min Rain = 0
KPD4 180810Z 19015G20KT 15/07 A2973 RMK A01 T01510065  RH  056%=      5-min Rain = 0
KPD4 180811Z 19016G21KT 15/07 A2973 RMK A01 T01520065  RH  056%=      5-min Rain = 0
KPD4 180812Z 19016KT 15/07 A2973 RMK A01 T01520065  RH  056%=      5-min Rain = 0
KPD4 180813Z 19019KT 15/07 A2973 RMK A01 T01520065  RH  056%=      5-min Rain = 0
KPD4 180814Z 20017KT 15/07 A2973 RMK A01 T01540066  RH  056%=      5-min Rain = 0
KPD4 180815Z 19015KT 15/07 A2973 RMK A01 T01540065  RH  056%=      5-min Rain = 0
KPD4 180816Z 19017G23KT 15/07 A2973 RMK A01 T01530065  RH  056%=      5-min Rain = 0
KPD4 180817Z 19013G18KT 15/07 A2973 RMK A01 T01530065  RH  056%=      5-min Rain = 0
KPD4 180818Z 19017KT 15/07 A2973 RMK A01 T01520065  RH  056%=      5-min Rain = 0
KPD4 180819Z 19017KT 15/07 A2973 RMK A01 T01510066  RH  056%=      5-min Rain = 0
KPD4 180820Z 19017KT 15/07 A2973 RMK A01 T01520066  RH  056%=      5-min Rain = 0
KPD4 180821Z 19015KT 15/07 A2972 RMK A01 T01520066  RH  056%=      5-min Rain = 0
KPD4 180822Z 19015KT 15/07 A2973 RMK A01 T01520066  RH  056%=      5-min Rain = 0
KPD4 180823Z 19016KT 15/07 A2972 RMK A01 T01510066  RH  057%=      5-min Rain = 0
KPD4 180824Z 19016KT 15/07 A2972 RMK A01 T01510066  RH  057%=      5-min Rain = 0
KPD4 180825Z 19015KT 15/07 A2972 RMK A01 T01510067  RH  057%=      5-min Rain = 0
KPD4 180826Z 19015KT 15/07 A2972 RMK A01 T01510066  RH  057%=      5-min Rain = 0
KPD4 180827Z 19015KT 15/07 A2972 RMK A01 T01500066  RH  057%=      5-min Rain = 0
KPD4 180828Z 19014KT 15/07 A2972 RMK A01 T01500067  RH  057%=      5-min Rain = 0
KPD4 180829Z 19016KT 15/07 A2972 RMK A01 T01490066  RH  058%=      5-min Rain = 0
KPD4 180830Z 19015KT 15/07 A2972 RMK A01 T01490067  RH  058%=      5-min Rain = 0
KPD4 180831Z 19016KT 15/07 A2972 RMK A01 T01480067  RH  058%=      5-min Rain = 0
KPD4 180832Z 19015KT 15/07 A2972 RMK A01 T01480067  RH  058%=      5-min Rain = 0
KPD4 180833Z 19016KT 15/07 A2972 RMK A01 T01480067  RH  058%=      5-min Rain = 0
KPD4 180834Z 19015KT 15/07 A2972 RMK A01 T01480067  RH  058%=      5-min Rain = 0
KPD4 180835Z 19016KT 15/07 A2972 RMK A01 T01480067  RH  058%=      5-min Rain = 0
KPD4 180836Z 19016KT 15/07 A2972 RMK A01 T01480068  RH  059%=      5-min Rain = 0
KPD4 180837Z 19015KT 15/07 A2972 RMK A01 T01480068  RH  059%=      5-min Rain = 0
KPD4 180838Z 20014KT 15/07 A2972 RMK A01 T01480068  RH  059%=      5-min Rain = 0
KPD4 180839Z 20016KT 15/07 A2972 RMK A01 T01470068  RH  059%=      5-min Rain = 0
KPD4 180840Z 20015KT 15/07 A2972 RMK A01 T01470068  RH  059%=      5-min Rain = 0
KPD4 180841Z 19014KT 15/07 A2972 RMK A01 T01460068  RH  059%=      5-min Rain = 0
KPD4 180842Z 20015KT 15/07 A2972 RMK A01 T01460068  RH  060%=      5-min Rain = 0
KPD4 180843Z 20015KT 15/07 A2972 RMK A01 T01460069  RH  060%=      5-min Rain = 0
KPD4 180844Z 20014KT 15/07 A2972 RMK A01 T01460068  RH  060%=      5-min Rain = 0
KPD4 180845Z 20016KT 15/07 A2971 RMK A01 T01460068  RH  060%=      5-min Rain = 0
KPD4 180846Z 20015KT 15/07 A2972 RMK A01 T01460069  RH  060%=      5-min Rain = 0
KPD4 180847Z 20015KT 15/07 A2972 RMK A01 T01460069  RH  060%=      5-min Rain = 0
KPD4 180848Z 20015G20KT 15/07 A2972 RMK A01 T01450069  RH  060%=      5-min Rain = 0
KPD4 180849Z 20017KT 15/07 A2971 RMK A01 T01450069  RH  060%=      5-min Rain = 0
KPD4 180850Z 20017KT 15/07 A2972 RMK A01 T01460070  RH  060%=      5-min Rain = 0
KPD4 180851Z 20017KT 15/07 A2971 RMK A01 T01460069  RH  060%=      5-min Rain = 0
KPD4 180852Z 19016KT 15/07 A2971 RMK A01 T01470070  RH  060%=      5-min Rain = 0
KPD4 180853Z 20016KT 15/07 A2971 RMK A01 T01470070  RH  060%=      5-min Rain = 0
KPD4 180854Z 20017KT 15/07 A2971 RMK A01 T01470070  RH  060%=      5-min Rain = 0
KPD4 180855Z 20015KT 15/07 A2971 RMK A01 T01470070  RH  060%=      5-min Rain = 0
KPD4 180856Z 20017G22KT 15/07 A2971 RMK A01 T01460070  RH  060%=      5-min Rain = 0
KPD4 180857Z 20017KT 15/07 A2971 RMK A01 T01460070  RH  060%=      5-min Rain = 0
KPD4 180858Z 20016KT 15/07 A2971 RMK A01 T01470071  RH  060%=      5-min Rain = 0
KPD4 180859Z 20017KT 15/07 A2971 RMK A01 T01470071  RH  060%=      5-min Rain = 0
KPD4 180900Z 20017KT 15/07 A2971 RMK A01 T01470071  RH  060%=      5-min Rain = 0
KPD4 180901Z 20016KT 15/07 A2971 RMK A01 T01470071  RH  061%=      5-min Rain = 0
KPD4 180902Z 19016KT 15/07 A2971 RMK A01 T01470071  RH  060%=      5-min Rain = 0
KPD4 180903Z 20017KT 15/07 A2971 RMK A01 T01470071  RH  061%=      5-min Rain = 0
KPD4 180904Z 20016KT 15/07 A2971 RMK A01 T01470072  RH  061%=      5-min Rain = 0
KPD4 180905Z 20015KT 15/07 A2971 RMK A01 T01460072  RH  061%=      5-min Rain = 0
KPD4 180906Z 20016KT 15/07 A2971 RMK A01 T01460072  RH  061%=      5-min Rain = 0
KPD4 180907Z 20016KT 15/07 A2971 RMK A01 T01460072  RH  061%=      5-min Rain = 0
KPD4 180908Z 20015KT 15/07 A2971 RMK A01 T01460072  RH  061%=      5-min Rain = 0
KPD4 180909Z 19017KT 15/07 A2971 RMK A01 T01460072  RH  061%=      5-min Rain = 0
KPD4 180910Z 19016G21KT 15/07 A2971 RMK A01 T01460072  RH  061%=      5-min Rain = 0
KPD4 180911Z 20015KT 15/07 A2971 RMK A01 T01460073  RH  061%=      5-min Rain = 0
KPD4 180912Z 19017KT 15/07 A2971 RMK A01 T01460073  RH  062%=      5-min Rain = 0
KPD4 180913Z 20018KT 15/07 A2971 RMK A01 T01460073  RH  062%=      5-min Rain = 0
KPD4 180914Z 20016KT 15/07 A2971 RMK A01 T01470073  RH  061%=      5-min Rain = 0
KPD4 180915Z 20015KT 15/07 A2971 RMK A01 T01470073  RH  061%=      5-min Rain = 0
KPD4 180916Z 20017KT 15/07 A2971 RMK A01 T01460073  RH  062%=      5-min Rain = 0
KPD4 180917Z 20018KT 15/07 A297 RMK A01 T01460074  RH  062%=      5-min Rain = 0
KPD4 180918Z 20019KT 15/07 A297 RMK A01 T01460074  RH  062%=      5-min Rain = 0
KPD4 180919Z 20019KT 15/07 A297 RMK A01 T01470074  RH  062%=      5-min Rain = 0
KPD4 180920Z 20018KT 15/07 A297 RMK A01 T01470074  RH  061%=      5-min Rain = 0
KPD4 180921Z 20016KT 15/07 A2971 RMK A01 T01470074  RH  061%=      5-min Rain = 0
KPD4 180922Z 20014KT 15/07 A2971 RMK A01 T01470074  RH  062%=      5-min Rain = 0
KPD4 180923Z 20015KT 15/07 A2971 RMK A01 T01460074  RH  062%=      5-min Rain = 0
KPD4 180924Z 20016KT 15/07 A2971 RMK A01 T01460074  RH  062%=      5-min Rain = 0
KPD4 180925Z 20014KT 15/07 A2971 RMK A01 T01450074  RH  062%=      5-min Rain = 0
KPD4 180926Z 20013G18KT 15/07 A2971 RMK A01 T01450074  RH  062%=      5-min Rain = 0
KPD4 180927Z 19013KT 14/07 A2971 RMK A01 T01440074  RH  063%=      5-min Rain = 0
KPD4 180928Z 19014KT 14/07 A2971 RMK A01 T01440074  RH  063%=      5-min Rain = 0
KPD4 180929Z 19016KT 14/07 A2971 RMK A01 T01440074  RH  063%=      5-min Rain = 0
KPD4 180930Z 19013KT 14/08 A2971 RMK A01 T01440075  RH  063%=      5-min Rain = 0
KPD4 180931Z 19015KT 14/07 A297 RMK A01 T01440074  RH  063%=      5-min Rain = 0
KPD4 180932Z 19015KT 14/08 A297 RMK A01 T01440075  RH  063%=      5-min Rain = 0
KPD4 180933Z 20015KT 14/08 A297 RMK A01 T01440075  RH  063%=      5-min Rain = 0
KPD4 180934Z 20014KT 14/08 A2971 RMK A01 T01440075  RH  063%=      5-min Rain = 0
KPD4 180935Z 19013KT 14/08 A297 RMK A01 T01440075  RH  063%=      5-min Rain = 0
KPD4 180936Z 20013KT 14/08 A2971 RMK A01 T01440075  RH  063%=      5-min Rain = 0
KPD4 180937Z 19012KT 14/08 A2971 RMK A01 T01430075  RH  063%=      5-min Rain = 0
KPD4 180938Z 20014KT 14/07 A2971 RMK A01 T01430074  RH  064%=      5-min Rain = 0
KPD4 180939Z 20013KT 14/08 A2971 RMK A01 T01420075  RH  064%=      5-min Rain = 0
KPD4 180940Z 19014KT 14/08 A2971 RMK A01 T01420075  RH  064%=      5-min Rain = 0
KPD4 180941Z 19011KT 14/08 A2971 RMK A01 T01410075  RH  064%=      5-min Rain = 0
KPD4 180942Z 20013KT 14/08 A2971 RMK A01 T01410075  RH  064%=      5-min Rain = 0
KPD4 180943Z 20013KT 14/08 A2971 RMK A01 T01410075  RH  064%=      5-min Rain = 0
KPD4 180944Z 19014KT 14/08 A2971 RMK A01 T01420075  RH  064%=      5-min Rain = 0
KPD4 180945Z 20013KT 14/08 A2971 RMK A01 T01430075  RH  064%=      5-min Rain = 0
KPD4 180946Z 20016KT 14/08 A2971 RMK A01 T01430075  RH  064%=      5-min Rain = 0
KPD4 180947Z 20015KT 14/08 A2971 RMK A01 T01440076  RH  063%=      5-min Rain = 0
KPD4 180948Z 20013KT 15/08 A2971 RMK A01 T01450075  RH  063%=      5-min Rain = 0
KPD4 180949Z 20013KT 14/08 A2971 RMK A01 T01440075  RH  063%=      5-min Rain = 0
KPD4 180950Z 20014KT 14/08 A2971 RMK A01 T01430075  RH  063%=      5-min Rain = 0
KPD4 180951Z 21014KT 14/08 A2971 RMK A01 T01430075  RH  064%=      5-min Rain = 0
KPD4 180952Z 20013KT 14/08 A2971 RMK A01 T01430075  RH  064%=      5-min Rain = 0
KPD4 180953Z 20014KT 14/08 A2971 RMK A01 T01430075  RH  064%=      5-min Rain = 0
KPD4 180954Z 20013KT 14/08 A2971 RMK A01 T01430075  RH  064%=      5-min Rain = 0
KPD4 180955Z 20015KT 14/08 A2971 RMK A01 T01420075  RH  064%=      5-min Rain = 0
KPD4 180956Z 20012KT 14/08 A2971 RMK A01 T01420075  RH  064%=      5-min Rain = 0
KPD4 180957Z 20012KT 14/08 A2971 RMK A01 T01420075  RH  064%=      5-min Rain = 0
KPD4 180958Z 20013KT 14/08 A2971 RMK A01 T01400075  RH  065%=      5-min Rain = 0
KPD4 180959Z 20013KT 14/08 A2971 RMK A01 T01410075  RH  065%=      5-min Rain = 0
KPD4 181000Z 20014KT 14/08 A2971 RMK A01 T01410075  RH  065%=      5-min Rain = 0
KPD4 181001Z 20015KT 14/08 A297 RMK A01 T01410075  RH  064%=      5-min Rain = 0
KPD4 181002Z 20014G19KT 14/08 A297 RMK A01 T01410075  RH  064%=      5-min Rain = 0
KPD4 181003Z 20012KT 14/08 A297 RMK A01 T01410075  RH  064%=      5-min Rain = 0
KPD4 181004Z 20013KT 14/08 A297 RMK A01 T01410075  RH  064%=      5-min Rain = 0
KPD4 181005Z 20015KT 14/08 A297 RMK A01 T01410075  RH  065%=      5-min Rain = 0
KPD4 181006Z 20014KT 14/08 A297 RMK A01 T01410075  RH  065%=      5-min Rain = 0
KPD4 181007Z 20013KT 14/08 A297 RMK A01 T01400075  RH  065%=      5-min Rain = 0
KPD4 181008Z 20013KT 14/08 A297 RMK A01 T01390075  RH  065%=      5-min Rain = 0
KPD4 181009Z 20014KT 14/08 A297 RMK A01 T01390075  RH  065%=      5-min Rain = 0
KPD4 181010Z 20012KT 14/08 A297 RMK A01 T01390075  RH  065%=      5-min Rain = 0
KPD4 181011Z 20014KT 14/08 A297 RMK A01 T01390075  RH  066%=      5-min Rain = 0
KPD4 181012Z 20012KT 14/08 A297 RMK A01 T01390075  RH  066%=      5-min Rain = 0
KPD4 181013Z 20014KT 14/08 A297 RMK A01 T01390075  RH  066%=      5-min Rain = 0
KPD4 181014Z 20014KT 14/08 A297 RMK A01 T01390076  RH  066%=      5-min Rain = 0
KPD4 181015Z 20012KT 14/08 A297 RMK A01 T01390076  RH  066%=      5-min Rain = 0
KPD4 181016Z 20012KT 14/08 A297 RMK A01 T01390075  RH  065%=      5-min Rain = 0
KPD4 181017Z 20014KT 14/08 A297 RMK A01 T01390075  RH  066%=      5-min Rain = 0
KPD4 181018Z 20013KT 14/08 A297 RMK A01 T01390076  RH  066%=      5-min Rain = 0
KPD4 181019Z 20013G18KT 14/08 A297 RMK A01 T01380075  RH  066%=      5-min Rain = 0
KPD4 181020Z 20012KT 14/08 A297 RMK A01 T01370075  RH  066%=      5-min Rain = 0
KPD4 181021Z 20013KT 14/08 A297 RMK A01 T01370075  RH  066%=      5-min Rain = 0
KPD4 181022Z 20013KT 14/08 A297 RMK A01 T01370076  RH  066%=      5-min Rain = 0
KPD4 181023Z 20013KT 14/08 A297 RMK A01 T01370076  RH  066%=      5-min Rain = 0
KPD4 181024Z 20014KT 14/08 A297 RMK A01 T01370076  RH  066%=      5-min Rain = 0
KPD4 181025Z 20015KT 14/08 A297 RMK A01 T01370076  RH  066%=      5-min Rain = 0
KPD4 181026Z 20014KT 14/08 A297 RMK A01 T01390076  RH  066%=      5-min Rain = 0
KPD4 181027Z 20014KT 14/08 A297 RMK A01 T01390076  RH  066%=      5-min Rain = 0
KPD4 181028Z 20014KT 14/08 A297 RMK A01 T01380076  RH  066%=      5-min Rain = 0
KPD4 181029Z 20014KT 14/08 A297 RMK A01 T01380076  RH  066%=      5-min Rain = 0
KPD4 181030Z 20016KT 14/08 A297 RMK A01 T01380076  RH  066%=      5-min Rain = 0
KPD4 181031Z 20013KT 14/08 A297 RMK A01 T01380076  RH  066%=      5-min Rain = 0
KPD4 181032Z 20013KT 14/08 A297 RMK A01 T01380076  RH  066%=      5-min Rain = 0
KPD4 181033Z 20013KT 14/08 A297 RMK A01 T01370076  RH  066%=      5-min Rain = 0
KPD4 181034Z 20013G18KT 14/08 A297 RMK A01 T01370076  RH  066%=      5-min Rain = 0
KPD4 181035Z 20015KT 14/08 A297 RMK A01 T01370076  RH  067%=      5-min Rain = 0
KPD4 181036Z 20014KT 14/08 A297 RMK A01 T01380076  RH  066%=      5-min Rain = 0
KPD4 181037Z 20013KT 14/08 A297 RMK A01 T01380076  RH  066%=      5-min Rain = 0
KPD4 181038Z 20014KT 14/08 A297 RMK A01 T01370076  RH  066%=      5-min Rain = 0
KPD4 181039Z 20014KT 14/08 A297 RMK A01 T01370076  RH  066%=      5-min Rain = 0
KPD4 181040Z 20013KT 14/08 A297 RMK A01 T01370076  RH  067%=      5-min Rain = 0
KPD4 181041Z 20015KT 14/08 A297 RMK A01 T01370076  RH  067%=      5-min Rain = 0
KPD4 181042Z 20016KT 14/08 A297 RMK A01 T01380076  RH  066%=      5-min Rain = 0
KPD4 181043Z 20013KT 14/08 A297 RMK A01 T01390076  RH  066%=      5-min Rain = 0
KPD4 181044Z 20014KT 14/08 A297 RMK A01 T01380076  RH  066%=      5-min Rain = 0
KPD4 181045Z 20015KT 14/08 A297 RMK A01 T01380076  RH  067%=      5-min Rain = 0
KPD4 181046Z 20014KT 14/08 A297 RMK A01 T01370076  RH  067%=      5-min Rain = 0
KPD4 181047Z 20014KT 14/08 A297 RMK A01 T01370076  RH  067%=      5-min Rain = 0
KPD4 181048Z 20016KT 14/08 A297 RMK A01 T01370076  RH  067%=      5-min Rain = 0
KPD4 181049Z 20016G21KT 14/08 A297 RMK A01 T01370077  RH  067%=      5-min Rain = 0
KPD4 181050Z 20017KT 14/08 A297 RMK A01 T01390077  RH  066%=      5-min Rain = 0
KPD4 181051Z 20016KT 14/08 A297 RMK A01 T01390077  RH  066%=      5-min Rain = 0
KPD4 181052Z 20016KT 14/08 A297 RMK A01 T01390077  RH  066%=      5-min Rain = 0
KPD4 181053Z 20016KT 14/08 A297 RMK A01 T01390077  RH  066%=      5-min Rain = 0
KPD4 181054Z 20014KT 14/08 A297 RMK A01 T01390077  RH  066%=      5-min Rain = 0
KPD4 181055Z 20013G19KT 14/08 A297 RMK A01 T01390077  RH  066%=      5-min Rain = 0
KPD4 181056Z 20017KT 14/08 A297 RMK A01 T01370077  RH  067%=      5-min Rain = 0
KPD4 181057Z 20017KT 14/08 A297 RMK A01 T01380077  RH  067%=      5-min Rain = 0
KPD4 181058Z 20015KT 14/08 A297 RMK A01 T01390077  RH  066%=      5-min Rain = 0
KPD4 181059Z 20016KT 14/08 A297 RMK A01 T01390077  RH  066%=      5-min Rain = 0
KPD4 181100Z 20015KT 14/08 A297 RMK A01 T01390077  RH  066%=      5-min Rain = 0
KPD4 181101Z 20016G21KT 14/08 A297 RMK A01 T01390078  RH  066%=      5-min Rain = 0
KPD4 181102Z 20015KT 14/08 A297 RMK A01 T01390078  RH  066%=      5-min Rain = 0
KPD4 181103Z 20016KT 14/08 A297 RMK A01 T01390078  RH  066%=      5-min Rain = 0
KPD4 181104Z 20017KT 14/08 A297 RMK A01 T01400078  RH  066%=      5-min Rain = 0
KPD4 181105Z 20016KT 14/08 A297 RMK A01 T01400078  RH  066%=      5-min Rain = 0
KPD4 181106Z 20016KT 14/08 A297 RMK A01 T01400078  RH  066%=      5-min Rain = 0
KPD4 181107Z 20018KT 14/08 A297 RMK A01 T01400078  RH  066%=      5-min Rain = 0
KPD4 181108Z 20016KT 14/08 A297 RMK A01 T01400078  RH  066%=      5-min Rain = 0
KPD4 181109Z 20015KT 14/08 A297 RMK A01 T01410078  RH  066%=      5-min Rain = 0
KPD4 181110Z 20016KT 14/08 A297 RMK A01 T01410078  RH  066%=      5-min Rain = 0
KPD4 181111Z 19015KT 14/08 A297 RMK A01 T01400078  RH  066%=      5-min Rain = 0
KPD4 181112Z 20014KT 14/08 A297 RMK A01 T01410079  RH  066%=      5-min Rain = 0
KPD4 181113Z 19015KT 14/08 A297 RMK A01 T01400078  RH  066%=      5-min Rain = 0
KPD4 181114Z 20013KT 14/08 A297 RMK A01 T01400078  RH  067%=      5-min Rain = 0
KPD4 181115Z 20013KT 14/08 A297 RMK A01 T01390078  RH  067%=      5-min Rain = 0
KPD4 181116Z 20015G20KT 14/08 A297 RMK A01 T01390078  RH  067%=      5-min Rain = 0
KPD4 181117Z 20015KT 14/08 A297 RMK A01 T01390079  RH  067%=      5-min Rain = 0
KPD4 181118Z 19014KT 14/08 A297 RMK A01 T01390078  RH  067%=      5-min Rain = 0
KPD4 181119Z 19013KT 14/08 A297 RMK A01 T01390079  RH  067%=      5-min Rain = 0
KPD4 181120Z 19014KT 14/08 A297 RMK A01 T01390079  RH  067%=      5-min Rain = 0
KPD4 181121Z 20012KT 14/08 A297 RMK A01 T01380079  RH  067%=      5-min Rain = 0
KPD4 181122Z 19014G20KT 14/08 A297 RMK A01 T01380079  RH  067%=      5-min Rain = 0
KPD4 181123Z 19015KT 14/08 A297 RMK A01 T01380079  RH  068%=      5-min Rain = 0
KPD4 181124Z 20015KT 14/08 A297 RMK A01 T01380079  RH  067%=      5-min Rain = 0
KPD4 181125Z 19014KT 14/08 A297 RMK A01 T01390079  RH  067%=      5-min Rain = 0
KPD4 181126Z 19014KT 14/08 A297 RMK A01 T01390079  RH  067%=      5-min Rain = 0
KPD4 181127Z 20012KT 14/08 A297 RMK A01 T01380079  RH  067%=      5-min Rain = 0
KPD4 181128Z 20013KT 14/08 A297 RMK A01 T01380079  RH  068%=      5-min Rain = 0
KPD4 181129Z 19012KT 14/08 A297 RMK A01 T01380079  RH  068%=      5-min Rain = 0
KPD4 181130Z 19012KT 14/08 A297 RMK A01 T01380079  RH  068%=      5-min Rain = 0
KPD4 181131Z 19015KT 14/08 A297 RMK A01 T01380080  RH  068%=      5-min Rain = 0
KPD4 181132Z 19013KT 14/08 A297 RMK A01 T01380080  RH  068%=      5-min Rain = 0
KPD4 181133Z 19014KT 14/08 A297 RMK A01 T01390080  RH  068%=      5-min Rain = 0
KPD4 181134Z 19014KT 14/08 A297 RMK A01 T01390080  RH  068%=      5-min Rain = 0
KPD4 181135Z 19015KT 14/08 A297 RMK A01 T01390080  RH  068%=      5-min Rain = 0
KPD4 181136Z 19014KT 14/08 A297 RMK A01 T01390080  RH  068%=      5-min Rain = 0
KPD4 181137Z 19015KT 14/08 A297 RMK A01 T01390080  RH  068%=      5-min Rain = 0
KPD4 181138Z 19014KT 14/08 A297 RMK A01 T01400081  RH  068%=      5-min Rain = 0
KPD4 181139Z 19014KT 14/08 A297 RMK A01 T01390081  RH  068%=      5-min Rain = 0
KPD4 181140Z 19015KT 14/08 A297 RMK A01 T01390080  RH  068%=      5-min Rain = 0
KPD4 181141Z 19014KT 14/08 A297 RMK A01 T01390080  RH  068%=      5-min Rain = 0
KPD4 181142Z 19016KT 14/08 A297 RMK A01 T01390080  RH  068%=      5-min Rain = 0
KPD4 181143Z 19015KT 14/08 A297 RMK A01 T01390081  RH  068%=      5-min Rain = 0
KPD4 181144Z 18015KT 14/08 A297 RMK A01 T01390081  RH  068%=      5-min Rain = 0
KPD4 181145Z 19015KT 14/08 A297 RMK A01 T01380081  RH  068%=      5-min Rain = 0
KPD4 181146Z 19015KT 14/08 A297 RMK A01 T01390081  RH  068%=      5-min Rain = 0
KPD4 181147Z 19015KT 14/08 A297 RMK A01 T01390081  RH  068%=      5-min Rain = 0
KPD4 181148Z 19014KT 14/08 A297 RMK A01 T01390081  RH  068%=      5-min Rain = 0
KPD4 181149Z 19013KT 14/08 A297 RMK A01 T01390081  RH  068%=      5-min Rain = 0
KPD4 181150Z 19013KT 14/08 A297 RMK A01 T01380081  RH  068%=      5-min Rain = 0
KPD4 181151Z 20014G19KT 14/08 A297 RMK A01 T01370081  RH  069%=      5-min Rain = 0
KPD4 181152Z 20012KT 14/08 A297 RMK A01 T01380081  RH  069%=      5-min Rain = 0
KPD4 181153Z 20012KT 14/08 A297 RMK A01 T01370081  RH  069%=      5-min Rain = 0
KPD4 181154Z 20012KT 14/08 A297 RMK A01 T01370081  RH  069%=      5-min Rain = 0
KPD4 181155Z 20014KT 14/08 A297 RMK A01 T01370081  RH  069%=      5-min Rain = 0
KPD4 181156Z 20015KT 14/08 A297 RMK A01 T01370081  RH  069%=      5-min Rain = 0
KPD4 181157Z 20014KT 14/08 A297 RMK A01 T01370081  RH  069%=      5-min Rain = 0
KPD4 181158Z 20013KT 14/08 A297 RMK A01 T01380081  RH  069%=      5-min Rain = 0
KPD4 181159Z 20012KT 14/08 A297 RMK A01 T01380081  RH  069%=      5-min Rain = 0
KPD4 181200Z 20013KT 14/08 A297 RMK A01 T01370081  RH  069%=      5-min Rain = 0
KPD4 181201Z 20014KT 14/08 A297 RMK A01 T01360081  RH  069%=      5-min Rain = 0
KPD4 181202Z 21013KT 14/08 A297 RMK A01 T01360081  RH  069%=      5-min Rain = 0
KPD4 181203Z 20012KT 14/08 A297 RMK A01 T01360081  RH  069%=      5-min Rain = 0
KPD4 181204Z 20013KT 14/08 A297 RMK A01 T01360081  RH  069%=      5-min Rain = 0
KPD4 181205Z 20012KT 14/08 A297 RMK A01 T01360081  RH  069%=      5-min Rain = 0
KPD4 181206Z 20015KT 14/08 A297 RMK A01 T01360081  RH  069%=      5-min Rain = 0
KPD4 181207Z 20013KT 14/08 A297 RMK A01 T01360081  RH  070%=      5-min Rain = 0
KPD4 181208Z 21015KT 14/08 A297 RMK A01 T01360081  RH  070%=      5-min Rain = 0
KPD4 181209Z 20015KT 14/08 A297 RMK A01 T01360082  RH  070%=      5-min Rain = 0
KPD4 181210Z 21014KT 14/08 A297 RMK A01 T01360081  RH  070%=      5-min Rain = 0
KPD4 181211Z 21013KT 14/08 A297 RMK A01 T01360081  RH  069%=      5-min Rain = 0
KPD4 181212Z 21012G17KT 14/08 A297 RMK A01 T01360081  RH  070%=      5-min Rain = 0
KPD4 181213Z 21013KT 14/08 A297 RMK A01 T01350081  RH  070%=      5-min Rain = 0
KPD4 181214Z 20013KT 14/08 A297 RMK A01 T01350081  RH  070%=      5-min Rain = 0
KPD4 181215Z 21013KT 14/08 A297 RMK A01 T01350081  RH  070%=      5-min Rain = 0
KPD4 181216Z 21013KT 14/08 A297 RMK A01 T01350081  RH  070%=      5-min Rain = 0
KPD4 181217Z 21012KT 14/08 A297 RMK A01 T01350081  RH  070%=      5-min Rain = 0
KPD4 181218Z 20012KT 14/08 A297 RMK A01 T01350081  RH  070%=      5-min Rain = 0
KPD4 181219Z 21012KT 13/08 A2971 RMK A01 T01340081  RH  070%=      5-min Rain = 0
KPD4 181220Z 20013KT 13/08 A2971 RMK A01 T01340081  RH  070%=      5-min Rain = 0
KPD4 181221Z 20013KT 13/08 A2971 RMK A01 T01330081  RH  071%=      5-min Rain = 0
KPD4 181222Z 20012KT 13/08 A297 RMK A01 T01330081  RH  071%=      5-min Rain = 0
KPD4 181223Z 20011KT 13/08 A297 RMK A01 T01330081  RH  071%=      5-min Rain = 0
KPD4 181224Z 20012KT 13/08 A297 RMK A01 T01330081  RH  071%=      5-min Rain = 0
KPD4 181225Z 20012KT 13/08 A297 RMK A01 T01320081  RH  071%=      5-min Rain = 0
KPD4 181226Z 20012KT 13/08 A297 RMK A01 T01320081  RH  071%=      5-min Rain = 0
KPD4 181227Z 20011KT 13/08 A297 RMK A01 T01320082  RH  072%=      5-min Rain = 0
KPD4 181228Z 19012KT 13/08 A297 RMK A01 T01310081  RH  072%=      5-min Rain = 0
KPD4 181229Z 20012KT 13/08 A297 RMK A01 T01310082  RH  072%=      5-min Rain = 0
KPD4 181230Z 20011KT 13/08 A297 RMK A01 T01310082  RH  072%=      5-min Rain = 0
KPD4 181231Z 20011KT 13/08 A297 RMK A01 T01310082  RH  072%=      5-min Rain = 0
KPD4 181232Z 20011KT 13/08 A297 RMK A01 T01310081  RH  072%=      5-min Rain = 0
KPD4 181233Z 20010KT 13/08 A297 RMK A01 T01300081  RH  072%=      5-min Rain = 0
KPD4 181234Z 21010KT 13/08 A297 RMK A01 T01290081  RH  072%=      5-min Rain = 0
KPD4 181235Z 21012KT 13/08 A297 RMK A01 T01290081  RH  073%=      5-min Rain = 0
KPD4 181236Z 20011KT 13/08 A297 RMK A01 T01300082  RH  072%=      5-min Rain = 0
KPD4 181237Z 20011KT 13/08 A297 RMK A01 T01300082  RH  072%=      5-min Rain = 0
KPD4 181238Z 20012KT 13/08 A297 RMK A01 T01300081  RH  072%=      5-min Rain = 0
KPD4 181239Z 20010KT 13/08 A297 RMK A01 T01300081  RH  072%=      5-min Rain = 0
KPD4 181240Z 20012KT 13/08 A297 RMK A01 T01290081  RH  073%=      5-min Rain = 0
KPD4 181241Z 20012KT 13/08 A297 RMK A01 T01290082  RH  073%=      5-min Rain = 0
KPD4 181242Z 20012KT 13/08 A297 RMK A01 T01300082  RH  073%=      5-min Rain = 0
KPD4 181243Z 20014KT 13/08 A297 RMK A01 T01300082  RH  072%=      5-min Rain = 0
KPD4 181244Z 20012KT 13/08 A297 RMK A01 T01310082  RH  072%=      5-min Rain = 0
KPD4 181245Z 20011KT 13/08 A297 RMK A01 T01310082  RH  072%=      5-min Rain = 0
KPD4 181246Z 19013KT 13/08 A297 RMK A01 T01300082  RH  072%=      5-min Rain = 0
KPD4 181247Z 20012KT 13/08 A297 RMK A01 T01300082  RH  073%=      5-min Rain = 0
KPD4 181248Z 20013KT 13/08 A297 RMK A01 T01300082  RH  073%=      5-min Rain = 0
KPD4 181249Z 20013KT 13/08 A297 RMK A01 T01300082  RH  073%=      5-min Rain = 0
KPD4 181250Z 19012KT 13/08 A297 RMK A01 T01300082  RH  073%=      5-min Rain = 0
KPD4 181251Z 20013KT 13/08 A297 RMK A01 T01300082  RH  073%=      5-min Rain = 0
KPD4 181252Z 19013KT 13/08 A297 RMK A01 T01300082  RH  073%=      5-min Rain = 0
KPD4 181253Z 20012KT 13/08 A297 RMK A01 T01300082  RH  073%=      5-min Rain = 0
KPD4 181254Z 19013KT 13/08 A2969 RMK A01 T01300082  RH  073%=      5-min Rain = 0
KPD4 181255Z 19013KT 13/08 A2969 RMK A01 T01300083  RH  073%=      5-min Rain = 0
KPD4 181256Z 19014KT 13/08 A2969 RMK A01 T01310083  RH  073%=      5-min Rain = 0
KPD4 181257Z 19014KT 13/08 A2969 RMK A01 T01310083  RH  072%=      5-min Rain = 0
KPD4 181258Z 19011KT 13/08 A297 RMK A01 T01310082  RH  072%=      5-min Rain = 0
KPD4 181259Z 20011KT 13/08 A2969 RMK A01 T01300082  RH  073%=      5-min Rain = 0
KPD4 181300Z 20012KT 13/08 A297 RMK A01 T01290082  RH  073%=      5-min Rain = 0
KPD4 181301Z 20011KT 13/08 A297 RMK A01 T01280082  RH  073%=      5-min Rain = 0
KPD4 181302Z 19013KT 13/08 A2969 RMK A01 T01280082  RH  073%=      5-min Rain = 0
KPD4 181303Z 20012KT 13/08 A2969 RMK A01 T01290083  RH  073%=      5-min Rain = 0
KPD4 181304Z 19012KT 13/08 A2969 RMK A01 T01300083  RH  073%=      5-min Rain = 0
KPD4 181305Z 20014KT 13/08 A2969 RMK A01 T01300083  RH  073%=      5-min Rain = 0
KPD4 181306Z 19012KT 13/08 A2969 RMK A01 T01300083  RH  073%=      5-min Rain = 0
KPD4 181307Z 19013KT 13/08 A2969 RMK A01 T01310083  RH  073%=      5-min Rain = 0
KPD4 181308Z 19013KT 13/08 A2969 RMK A01 T01300083  RH  073%=      5-min Rain = 0
KPD4 181309Z 20012KT 13/08 A2969 RMK A01 T01310083  RH  073%=      5-min Rain = 0
KPD4 181310Z 19014KT 13/08 A2969 RMK A01 T01300083  RH  073%=      5-min Rain = 0
KPD4 181311Z 19015KT 13/08 A2969 RMK A01 T01310083  RH  073%=      5-min Rain = 0
KPD4 181312Z 20013KT 13/08 A2969 RMK A01 T01320084  RH  072%=      5-min Rain = 0
KPD4 181313Z 20014KT 13/08 A2969 RMK A01 T01320083  RH  072%=      5-min Rain = 0
KPD4 181314Z 20013G18KT 13/08 A2969 RMK A01 T01320083  RH  072%=      5-min Rain = 0
KPD4 181315Z 20015KT 13/08 A2969 RMK A01 T01320084  RH  072%=      5-min Rain = 0
KPD4 181316Z 20013KT 13/08 A2969 RMK A01 T01330084  RH  072%=      5-min Rain = 0
KPD4 181317Z 20013KT 13/08 A2969 RMK A01 T01330084  RH  072%=      5-min Rain = 0
KPD4 181318Z 20012KT 13/08 A2969 RMK A01 T01330084  RH  072%=      5-min Rain = 0
KPD4 181319Z 19015KT 13/08 A2969 RMK A01 T01330084  RH  072%=      5-min Rain = 0
KPD4 181320Z 20014KT 13/08 A2969 RMK A01 T01330084  RH  072%=      5-min Rain = 0
KPD4 181321Z 20015KT 13/08 A2969 RMK A01 T01340084  RH  072%=      5-min Rain = 0
KPD4 181322Z 20016KT 13/08 A2969 RMK A01 T01340084  RH  072%=      5-min Rain = 0
KPD4 181323Z 20015KT 13/08 A2969 RMK A01 T01340084  RH  071%=      5-min Rain = 0
KPD4 181324Z 20015KT 14/08 A2969 RMK A01 T01350084  RH  071%=      5-min Rain = 0
KPD4 181325Z 20014KT 14/08 A2969 RMK A01 T01350084  RH  071%=      5-min Rain = 0
KPD4 181326Z 20013KT 14/08 A2969 RMK A01 T01360084  RH  071%=      5-min Rain = 0
KPD4 181327Z 20014KT 14/08 A2969 RMK A01 T01360084  RH  071%=      5-min Rain = 0
KPD4 181328Z 21016KT 14/08 A2969 RMK A01 T01350084  RH  071%=      5-min Rain = 0
KPD4 181329Z 21014KT 14/08 A2969 RMK A01 T01360084  RH  071%=      5-min Rain = 0
KPD4 181330Z 20014KT 14/08 A2969 RMK A01 T01360084  RH  071%=      5-min Rain = 0
KPD4 181331Z 20015KT 14/08 A2969 RMK A01 T01360084  RH  071%=      5-min Rain = 0
KPD4 181332Z 20014KT 14/08 A2969 RMK A01 T01360084  RH  071%=      5-min Rain = 0
KPD4 181333Z 20012KT 14/08 A2969 RMK A01 T01360084  RH  071%=      5-min Rain = 0
KPD4 181334Z 20014KT 14/08 A2969 RMK A01 T01360084  RH  071%=      5-min Rain = 0
KPD4 181335Z 21014KT 14/09 A2969 RMK A01 T01370085  RH  071%=      5-min Rain = 0
KPD4 181336Z 20016KT 14/08 A2969 RMK A01 T01370084  RH  071%=      5-min Rain = 0
KPD4 181337Z 20015KT 14/09 A2969 RMK A01 T01380085  RH  070%=      5-min Rain = 0
KPD4 181338Z 21014KT 14/09 A2969 RMK A01 T01380085  RH  070%=      5-min Rain = 0
KPD4 181339Z 20014KT 14/09 A2969 RMK A01 T01380085  RH  070%=      5-min Rain = 0
KPD4 181340Z 20015KT 14/09 A2969 RMK A01 T01390085  RH  070%=      5-min Rain = 0
KPD4 181341Z 21016KT 14/09 A2969 RMK A01 T01390085  RH  070%=      5-min Rain = 0
KPD4 181342Z 20014KT 14/09 A2969 RMK A01 T01400085  RH  070%=      5-min Rain = 0
KPD4 181343Z 20013KT 14/09 A2969 RMK A01 T01410085  RH  069%=      5-min Rain = 0
KPD4 181344Z 20015KT 14/09 A2969 RMK A01 T01410086  RH  069%=      5-min Rain = 0
KPD4 181345Z 19015KT 14/09 A2969 RMK A01 T01400085  RH  069%=      5-min Rain = 0
KPD4 181346Z 20015KT 14/09 A2969 RMK A01 T01410085  RH  069%=      5-min Rain = 0
KPD4 181347Z 20015KT 14/09 A2969 RMK A01 T01410085  RH  069%=      5-min Rain = 0
KPD4 181348Z 20015KT 14/09 A2969 RMK A01 T01420086  RH  069%=      5-min Rain = 0
KPD4 181349Z 20016KT 14/09 A2969 RMK A01 T01420086  RH  069%=      5-min Rain = 0
KPD4 181350Z 20015KT 14/09 A2969 RMK A01 T01420086  RH  069%=      5-min Rain = 0
KPD4 181351Z 20014KT 14/09 A2969 RMK A01 T01420086  RH  069%=      5-min Rain = 0
KPD4 181352Z 20013KT 14/09 A2969 RMK A01 T01430086  RH  069%=      5-min Rain = 0
KPD4 181353Z 20015KT 14/09 A2969 RMK A01 T01440087  RH  068%=      5-min Rain = 0
KPD4 181354Z 20014KT 14/09 A2969 RMK A01 T01440086  RH  068%=      5-min Rain = 0
KPD4 181355Z 20011KT 15/09 A2969 RMK A01 T01450087  RH  068%=      5-min Rain = 0
KPD4 181356Z 20015KT 15/09 A2969 RMK A01 T01460087  RH  068%=      5-min Rain = 0
KPD4 181357Z 20015KT 15/09 A2969 RMK A01 T01460087  RH  068%=      5-min Rain = 0
KPD4 181358Z 20016KT 15/09 A2969 RMK A01 T01470087  RH  067%=      5-min Rain = 0
KPD4 181359Z 20012KT 15/09 A2969 RMK A01 T01470087  RH  067%=      5-min Rain = 0
KPD4 181400Z 19014KT 15/09 A2969 RMK A01 T01480087  RH  067%=      5-min Rain = 0
KPD4 181401Z 20015KT 15/09 A2969 RMK A01 T01480087  RH  067%=      5-min Rain = 0
KPD4 181402Z 20014KT 15/09 A2969 RMK A01 T01480087  RH  067%=      5-min Rain = 0
KPD4 181403Z 20016G21KT 15/09 A2969 RMK A01 T01490087  RH  067%=      5-min Rain = 0
KPD4 181404Z 19017KT 15/09 A2969 RMK A01 T01490087  RH  066%=      5-min Rain = 0
KPD4 181405Z 20016KT 15/09 A2969 RMK A01 T01500087  RH  066%=      5-min Rain = 0
KPD4 181406Z 20014KT 15/09 A2969 RMK A01 T01500087  RH  066%=      5-min Rain = 0
KPD4 181407Z 20015KT 15/09 A2969 RMK A01 T01510087  RH  066%=      5-min Rain = 0
KPD4 181408Z 20016KT 15/09 A2969 RMK A01 T01510088  RH  066%=      5-min Rain = 0
KPD4 181409Z 20017KT 15/09 A297 RMK A01 T01520087  RH  065%=      5-min Rain = 0
KPD4 181410Z 20014KT 15/09 A297 RMK A01 T01520088  RH  065%=      5-min Rain = 0
KPD4 181411Z 20014KT 15/09 A297 RMK A01 T01530088  RH  065%=      5-min Rain = 0
KPD4 181412Z 20012KT 15/09 A297 RMK A01 T01540088  RH  065%=      5-min Rain = 0
KPD4 181413Z 20012KT 16/09 A297 RMK A01 T01550089  RH  065%=      5-min Rain = 0
KPD4 181414Z 20013KT 16/09 A297 RMK A01 T01560089  RH  064%=      5-min Rain = 0
KPD4 181415Z 19013KT 16/09 A297 RMK A01 T01560089  RH  064%=      5-min Rain = 0
KPD4 181416Z 20015KT 16/09 A297 RMK A01 T01560088  RH  064%=      5-min Rain = 0
KPD4 181417Z 20012KT 16/09 A297 RMK A01 T01570088  RH  064%=      5-min Rain = 0
KPD4 181418Z 20012KT 16/09 A297 RMK A01 T01570089  RH  064%=      5-min Rain = 0
KPD4 181419Z 20015KT 16/09 A297 RMK A01 T01580089  RH  064%=      5-min Rain = 0
KPD4 181420Z 20017KT 16/09 A2969 RMK A01 T01580089  RH  063%=      5-min Rain = 0
KPD4 181421Z 20017KT 16/09 A2969 RMK A01 T01580088  RH  063%=      5-min Rain = 0
KPD4 181422Z 20017KT 16/09 A2969 RMK A01 T01580088  RH  063%=      5-min Rain = 0
KPD4 181423Z 21016KT 16/09 A2969 RMK A01 T01590089  RH  063%=      5-min Rain = 0
KPD4 181424Z 20016KT 16/09 A2969 RMK A01 T01600089  RH  063%=      5-min Rain = 0
KPD4 181425Z 20014KT 16/09 A2969 RMK A01 T01600089  RH  063%=      5-min Rain = 0
KPD4 181426Z 20017KT 16/09 A2969 RMK A01 T01600089  RH  063%=      5-min Rain = 0
KPD4 181427Z 20018KT 16/09 A2969 RMK A01 T01610089  RH  062%=      5-min Rain = 0
KPD4 181428Z 20016KT 16/09 A2969 RMK A01 T01610089  RH  062%=      5-min Rain = 0
KPD4 181429Z 20015KT 16/09 A2969 RMK A01 T01620089  RH  062%=      5-min Rain = 0
KPD4 181430Z 21018KT 16/09 A2969 RMK A01 T01620089  RH  062%=      5-min Rain = 0
KPD4 181431Z 21014KT 16/09 A2969 RMK A01 T01620089  RH  062%=      5-min Rain = 0
KPD4 181432Z 21013KT 16/09 A2969 RMK A01 T01640091  RH  062%=      5-min Rain = 0
KPD4 181433Z 20018KT 17/09 A2969 RMK A01 T01660090  RH  061%=      5-min Rain = 0
KPD4 181434Z 21017KT 17/09 A2969 RMK A01 T01660089  RH  060%=      5-min Rain = 0
KPD4 181435Z 21014KT 17/09 A2969 RMK A01 T01660090  RH  061%=      5-min Rain = 0
KPD4 181436Z 20014KT 17/09 A2969 RMK A01 T01670090  RH  061%=      5-min Rain = 0
KPD4 181437Z 20017KT 17/09 A2969 RMK A01 T01670090  RH  060%=      5-min Rain = 0
KPD4 181438Z 21017KT 17/09 A2969 RMK A01 T01670089  RH  060%=      5-min Rain = 0
KPD4 181439Z 20017KT 17/09 A2969 RMK A01 T01670090  RH  060%=      5-min Rain = 0
KPD4 181440Z 21018KT 17/09 A2969 RMK A01 T01670089  RH  060%=      5-min Rain = 0
KPD4 181441Z 20017KT 17/09 A2969 RMK A01 T01680089  RH  060%=      5-min Rain = 0
KPD4 181442Z 20016KT 17/09 A2969 RMK A01 T01680089  RH  060%=      5-min Rain = 0
KPD4 181443Z 21017KT 17/09 A2969 RMK A01 T01690089  RH  059%=      5-min Rain = 0
KPD4 181444Z 20014KT 17/09 A2969 RMK A01 T01700090  RH  059%=      5-min Rain = 0
KPD4 181445Z 20014G19KT 17/09 A2969 RMK A01 T01710090  RH  059%=      5-min Rain = 0
KPD4 181446Z 20014KT 17/09 A2969 RMK A01 T01720090  RH  058%=      5-min Rain = 0
KPD4 181447Z 20016KT 17/09 A2969 RMK A01 T01730090  RH  058%=      5-min Rain = 0
KPD4 181448Z 20014KT 17/09 A2969 RMK A01 T01740090  RH  058%=      5-min Rain = 0
KPD4 181449Z 20018KT 17/09 A2969 RMK A01 T01740090  RH  057%=      5-min Rain = 0
KPD4 181450Z 21017KT 18/09 A2969 RMK A01 T01750089  RH  057%=      5-min Rain = 0
KPD4 181451Z 20013KT 17/09 A2969 RMK A01 T01740090  RH  058%=      5-min Rain = 0
KPD4 181452Z 21012KT 18/09 A2969 RMK A01 T01750091  RH  058%=      5-min Rain = 0
KPD4 181453Z 20015KT 18/09 A2969 RMK A01 T01770091  RH  057%=      5-min Rain = 0
KPD4 181454Z 20014KT 18/09 A2969 RMK A01 T01780090  RH  056%=      5-min Rain = 0
KPD4 181455Z 19014KT 18/09 A2969 RMK A01 T01790090  RH  056%=      5-min Rain = 0
KPD4 181456Z 19014KT 18/09 A2969 RMK A01 T01790089  RH  056%=      5-min Rain = 0
KPD4 181457Z 20013KT 18/09 A2969 RMK A01 T01790091  RH  056%=      5-min Rain = 0
KPD4 181458Z 21014KT 18/09 A2969 RMK A01 T01810091  RH  056%=      5-min Rain = 0
KPD4 181459Z 19014G19KT 18/09 A2969 RMK A01 T01830091  RH  055%=      5-min Rain = 0
KPD4 181500Z 20015KT 18/09 A2969 RMK A01 T01840090  RH  054%=      5-min Rain = 0
KPD4 181501Z 19016KT 18/09 A2969 RMK A01 T01830090  RH  055%=      5-min Rain = 0
KPD4 181502Z 20017KT 18/09 A2969 RMK A01 T01830090  RH  054%=      5-min Rain = 0
KPD4 181503Z 20016KT 18/09 A2969 RMK A01 T01830089  RH  054%=      5-min Rain = 0
KPD4 181504Z 20017KT 18/09 A2969 RMK A01 T01830090  RH  055%=      5-min Rain = 0
KPD4 181505Z 21017KT 18/09 A2969 RMK A01 T01830089  RH  054%=      5-min Rain = 0
KPD4 181506Z 21016KT 19/09 A2969 RMK A01 T01850089  RH  054%=      5-min Rain = 0
KPD4 181507Z 21017KT 19/09 A2969 RMK A01 T01860089  RH  053%=      5-min Rain = 0
KPD4 181508Z 21018G24KT 19/09 A2969 RMK A01 T01870089  RH  053%=      5-min Rain = 0
KPD4 181509Z 20020KT 19/09 A2969 RMK A01 T01890089  RH  052%=      5-min Rain = 0
KPD4 181510Z 20019KT 19/09 A2968 RMK A01 T01890088  RH  052%=      5-min Rain = 0
KPD4 181511Z 21019KT 19/09 A2968 RMK A01 T01890087  RH  052%=      5-min Rain = 0
KPD4 181512Z 21018KT 19/09 A2968 RMK A01 T01890088  RH  052%=      5-min Rain = 0
KPD4 181513Z 21017KT 19/09 A2968 RMK A01 T01900088  RH  052%=      5-min Rain = 0
KPD4 181514Z 21016G21KT 19/09 A2968 RMK A01 T01910089  RH  052%=      5-min Rain = 0
KPD4 181515Z 21019KT 19/09 A2968 RMK A01 T01920088  RH  051%=      5-min Rain = 0
KPD4 181516Z 20018KT 19/09 A2968 RMK A01 T01920088  RH  051%=      5-min Rain = 0
KPD4 181517Z 20021KT 19/09 A2968 RMK A01 T01910087  RH  051%=      5-min Rain = 0
KPD4 181518Z 21016KT 19/09 A2968 RMK A01 T01910088  RH  051%=      5-min Rain = 0
KPD4 181519Z 21017G23KT 19/09 A2968 RMK A01 T01930089  RH  051%=      5-min Rain = 0
KPD4 181520Z 21018KT 19/09 A2968 RMK A01 T01940088  RH  050%=      5-min Rain = 0
KPD4 181521Z 22020KT 19/09 A2968 RMK A01 T01940087  RH  050%=      5-min Rain = 0
KPD4 181522Z 21020KT 19/09 A2968 RMK A01 T01940087  RH  050%=      5-min Rain = 0
KPD4 181523Z 22018KT 19/09 A2968 RMK A01 T01940087  RH  050%=      5-min Rain = 0
KPD4 181524Z 22015KT 19/09 A2968 RMK A01 T01940088  RH  050%=      5-min Rain = 0
KPD4 181525Z 22015KT 20/09 A2968 RMK A01 T01970089  RH  050%=      5-min Rain = 0
KPD4 181526Z 22013KT 20/09 A2968 RMK A01 T01980088  RH  049%=      5-min Rain = 0
KPD4 181527Z 21013KT 20/09 A2968 RMK A01 T02000091  RH  049%=      5-min Rain = 0
KPD4 181528Z 21015KT 20/09 A2968 RMK A01 T02030090  RH  048%=      5-min Rain = 0
KPD4 181529Z 22016KT 20/09 A2968 RMK A01 T02040090  RH  048%=      5-min Rain = 0
KPD4 181530Z 21017KT 20/09 A2968 RMK A01 T02020088  RH  048%=      5-min Rain = 0
KPD4 181531Z 21019KT 20/09 A2968 RMK A01 T02010088  RH  048%=      5-min Rain = 0
KPD4 181532Z 21019KT 20/09 A2968 RMK A01 T02000087  RH  048%=      5-min Rain = 0
KPD4 181533Z 21017KT 20/09 A2968 RMK A01 T01980087  RH  048%=      5-min Rain = 0
KPD4 181534Z 20019KT 20/09 A2968 RMK A01 T01990087  RH  048%=      5-min Rain = 0
KPD4 181535Z 22016KT 20/09 A2968 RMK A01 T01990087  RH  048%=      5-min Rain = 0
KPD4 181536Z 21017KT 20/09 A2968 RMK A01 T02020088  RH  048%=      5-min Rain = 0
KPD4 181537Z 22015KT 20/09 A2968 RMK A01 T02020088  RH  048%=      5-min Rain = 0
KPD4 181538Z 22015KT 20/09 A2968 RMK A01 T02030088  RH  048%=      5-min Rain = 0
KPD4 181539Z 21017KT 20/09 A2968 RMK A01 T02040088  RH  047%=      5-min Rain = 0
KPD4 181540Z 21018KT 21/09 A2968 RMK A01 T02050087  RH  047%=      5-min Rain = 0
KPD4 181541Z 22018KT 21/09 A2968 RMK A01 T02050087  RH  047%=      5-min Rain = 0
KPD4 181542Z 22020KT 21/09 A2968 RMK A01 T02050086  RH  046%=      5-min Rain = 0
KPD4 181543Z 22018KT 21/09 A2968 RMK A01 T02050085  RH  046%=      5-min Rain = 0
KPD4 181544Z 22018G23KT 21/09 A2968 RMK A01 T02050086  RH  046%=      5-min Rain = 0
KPD4 181545Z 23018KT 21/09 A2968 RMK A01 T02070086  RH  046%=      5-min Rain = 0
KPD4 181546Z 22014G19KT 21/09 A2968 RMK A01 T02080088  RH  046%=      5-min Rain = 0
KPD4 181547Z 21012KT 21/09 A2968 RMK A01 T02100090  RH  046%=      5-min Rain = 0
KPD4 181548Z 21012G17KT 21/09 A2968 RMK A01 T02130090  RH  045%=      5-min Rain = 0
KPD4 181549Z 21016KT 22/09 A2968 RMK A01 T02150090  RH  045%=      5-min Rain = 0
KPD4 181550Z 21017KT 22/09 A2968 RMK A01 T02160087  RH  044%=      5-min Rain = 0
KPD4 181551Z 21015KT 21/09 A2968 RMK A01 T02140087  RH  044%=      5-min Rain = 0
KPD4 181552Z 20016KT 21/09 A2968 RMK A01 T02140087  RH  044%=      5-min Rain = 0
KPD4 181553Z 20016KT 21/09 A2968 RMK A01 T02140086  RH  044%=      5-min Rain = 0
KPD4 181554Z 19014KT 21/09 A2968 RMK A01 T02140088  RH  044%=      5-min Rain = 0
KPD4 181555Z 20016G21KT 22/09 A2967 RMK A01 T02160088  RH  044%=      5-min Rain = 0
KPD4 181556Z 21015KT 22/09 A2967 RMK A01 T02160087  RH  044%=      5-min Rain = 0
KPD4 181557Z 20018KT 22/09 A2967 RMK A01 T02160086  RH  043%=      5-min Rain = 0
KPD4 181558Z 20018KT 22/09 A2967 RMK A01 T02160086  RH  043%=      5-min Rain = 0
KPD4 181559Z 21015KT 22/09 A2967 RMK A01 T02160086  RH  043%=      5-min Rain = 0
KPD4 181600Z 21016KT 22/09 A2967 RMK A01 T02170088  RH  043%=      5-min Rain = 0
KPD4 181601Z 21016KT 22/09 A2967 RMK A01 T02180086  RH  043%=      5-min Rain = 0
KPD4 181602Z 20017KT 22/09 A2967 RMK A01 T02180086  RH  043%=      5-min Rain = 0
KPD4 181603Z 21017KT 22/09 A2967 RMK A01 T02180086  RH  043%=      5-min Rain = 0
KPD4 181604Z 20016KT 22/09 A2967 RMK A01 T02180086  RH  043%=      5-min Rain = 0
KPD4 181605Z 20016KT 22/09 A2967 RMK A01 T02190086  RH  043%=      5-min Rain = 0
KPD4 181606Z 20017KT 22/09 A2967 RMK A01 T02200086  RH  042%=      5-min Rain = 0
KPD4 181607Z 20015KT 22/09 A2967 RMK A01 T02200087  RH  042%=      5-min Rain = 0
KPD4 181608Z 19017KT 22/09 A2967 RMK A01 T02200086  RH  042%=      5-min Rain = 0
KPD4 181609Z 21017KT 22/09 A2967 RMK A01 T02210086  RH  042%=      5-min Rain = 0
KPD4 181610Z 20016KT 22/09 A2967 RMK A01 T02230087  RH  042%=      5-min Rain = 0
KPD4 181611Z 21018KT 22/09 A2967 RMK A01 T02230086  RH  041%=      5-min Rain = 0
KPD4 181612Z 21016KT 22/09 A2967 RMK A01 T02220087  RH  042%=      5-min Rain = 0
KPD4 181613Z 20013KT 22/09 A2967 RMK A01 T02230088  RH  042%=      5-min Rain = 0
KPD4 181614Z 21014KT 23/09 A2967 RMK A01 T02260090  RH  042%=      5-min Rain = 0
KPD4 181615Z 20016KT 23/09 A2967 RMK A01 T02300090  RH  041%=      5-min Rain = 0
KPD4 181616Z 21014KT 23/09 A2967 RMK A01 T02300089  RH  041%=      5-min Rain = 0
KPD4 181617Z 21017KT 23/09 A2967 RMK A01 T02300088  RH  040%=      5-min Rain = 0
KPD4 181618Z 22019KT 23/09 A2967 RMK A01 T02290086  RH  040%=      5-min Rain = 0
KPD4 181619Z 22019KT 23/09 A2966 RMK A01 T02280085  RH  040%=      5-min Rain = 0
KPD4 181620Z 21017KT 23/09 A2967 RMK A01 T02280085  RH  040%=      5-min Rain = 0
KPD4 181621Z 21016KT 23/09 A2967 RMK A01 T02280086  RH  040%=      5-min Rain = 0
KPD4 181622Z 21016KT 23/09 A2967 RMK A01 T02280087  RH  040%=      5-min Rain = 0
KPD4 181623Z 21014KT 23/09 A2966 RMK A01 T02290087  RH  040%=      5-min Rain = 0
KPD4 181624Z 22015KT 23/09 A2966 RMK A01 T02300089  RH  041%=      5-min Rain = 0
KPD4 181625Z 22016KT 23/09 A2966 RMK A01 T02330089  RH  040%=      5-min Rain = 0
KPD4 181626Z 21013KT 23/09 A2966 RMK A01 T02320088  RH  040%=      5-min Rain = 0
KPD4 181627Z 22016KT 23/09 A2966 RMK A01 T02340089  RH  040%=      5-min Rain = 0
KPD4 181628Z 22016G21KT 24/09 A2966 RMK A01 T02360088  RH  039%=      5-min Rain = 0
KPD4 181629Z 22014KT 24/09 A2966 RMK A01 T02360087  RH  038%=      5-min Rain = 0
KPD4 181630Z 21015KT 24/09 A2966 RMK A01 T02360088  RH  039%=      5-min Rain = 0
KPD4 181631Z 20014KT 24/09 A2966 RMK A01 T02370089  RH  039%=      5-min Rain = 0
KPD4 181632Z 21014KT 24/09 A2966 RMK A01 T02380089  RH  039%=      5-min Rain = 0
KPD4 181633Z 20015KT 24/09 A2966 RMK A01 T02390089  RH  039%=      5-min Rain = 0
KPD4 181634Z 21014KT 24/09 A2966 RMK A01 T02380089  RH  039%=      5-min Rain = 0
KPD4 181635Z 22016KT 24/09 A2966 RMK A01 T02400091  RH  039%=      5-min Rain = 0
KPD4 181636Z 21016G21KT 24/09 A2966 RMK A01 T02410090  RH  038%=      5-min Rain = 0
KPD4 181637Z 22019KT 24/09 A2966 RMK A01 T02400088  RH  038%=      5-min Rain = 0
KPD4 181638Z 22017KT 24/09 A2966 RMK A01 T02390087  RH  038%=      5-min Rain = 0
KPD4 181639Z 23017KT 24/09 A2966 RMK A01 T02380088  RH  038%=      5-min Rain = 0
KPD4 181640Z 22018KT 24/09 A2966 RMK A01 T02390089  RH  038%=      5-min Rain = 0
KPD4 181641Z 21016KT 24/09 A2966 RMK A01 T02400089  RH  038%=      5-min Rain = 0
KPD4 181642Z 21014KT 24/09 A2966 RMK A01 T02410089  RH  038%=      5-min Rain = 0
KPD4 181643Z 21015KT 24/09 A2966 RMK A01 T02420089  RH  038%=      5-min Rain = 0
KPD4 181644Z 20014KT 24/09 A2966 RMK A01 T02440090  RH  038%=      5-min Rain = 0
KPD4 181645Z 20015KT 24/09 A2966 RMK A01 T02440090  RH  038%=      5-min Rain = 0
KPD4 181646Z 21015KT 25/09 A2966 RMK A01 T02450091  RH  037%=      5-min Rain = 0
KPD4 181647Z 21013G18KT 25/09 A2966 RMK A01 T02490092  RH  037%=      5-min Rain = 0
KPD4 181648Z 21019G24KT 25/09 A2965 RMK A01 T02510091  RH  036%=      5-min Rain = 0
KPD4 181649Z 23017G22KT 25/09 A2965 RMK A01 T02480090  RH  037%=      5-min Rain = 0
KPD4 181650Z 23017KT 25/09 A2965 RMK A01 T02480090  RH  037%=      5-min Rain = 0
KPD4 181651Z 21016KT 25/09 A2965 RMK A01 T02470091  RH  037%=      5-min Rain = 0
KPD4 181652Z 21018KT 25/09 A2965 RMK A01 T02480091  RH  037%=      5-min Rain = 0
KPD4 181653Z 21016KT 25/09 A2965 RMK A01 T02500091  RH  036%=      5-min Rain = 0
KPD4 181654Z 21016G21KT 25/09 A2965 RMK A01 T02510091  RH  036%=      5-min Rain = 0
KPD4 181655Z 21015KT 25/09 A2965 RMK A01 T02510090  RH  036%=      5-min Rain = 0
KPD4 181656Z 22015KT 25/09 A2965 RMK A01 T02490091  RH  037%=      5-min Rain = 0
KPD4 181657Z 22015KT 25/09 A2965 RMK A01 T02510091  RH  036%=      5-min Rain = 0
KPD4 181658Z 21015KT 25/09 A2965 RMK A01 T02530091  RH  036%=      5-min Rain = 0
KPD4 181659Z 22017KT 25/09 A2965 RMK A01 T02530090  RH  035%=      5-min Rain = 0
KPD4 181700Z 22016KT 25/09 A2965 RMK A01 T02520090  RH  036%=      5-min Rain = 0
KPD4 181701Z 21015KT 25/09 A2965 RMK A01 T02530091  RH  036%=      5-min Rain = 0
KPD4 181702Z 22016G22KT 26/09 A2965 RMK A01 T02570093  RH  035%=      5-min Rain = 0
KPD4 181703Z 22017KT 26/09 A2965 RMK A01 T02580090  RH  034%=      5-min Rain = 0
KPD4 181704Z 22014KT 26/09 A2965 RMK A01 T02550089  RH  035%=      5-min Rain = 0
KPD4 181705Z 20015KT 26/09 A2965 RMK A01 T02560093  RH  036%=      5-min Rain = 0
KPD4 181706Z 22016KT 26/09 A2965 RMK A01 T02590092  RH  035%=      5-min Rain = 0
KPD4 181707Z 21013KT 26/09 A2965 RMK A01 T02580092  RH  035%=      5-min Rain = 0
KPD4 181708Z 21013KT 26/09 A2965 RMK A01 T02590092  RH  035%=      5-min Rain = 0
KPD4 181709Z 20015KT 26/09 A2965 RMK A01 T02600091  RH  034%=      5-min Rain = 0
KPD4 181710Z 22014KT 26/09 A2965 RMK A01 T02610092  RH  034%=      5-min Rain = 0
KPD4 181711Z 22012KT 26/09 A2965 RMK A01 T02620090  RH  034%=      5-min Rain = 0
KPD4 181712Z 21013KT 26/09 A2965 RMK A01 T02620093  RH  034%=      5-min Rain = 0
KPD4 181713Z 20014KT 27/09 A2965 RMK A01 T02650092  RH  034%=      5-min Rain = 0
KPD4 181714Z 21015G20KT 27/09 A2965 RMK A01 T02660092  RH  034%=      5-min Rain = 0
KPD4 181715Z 22016KT 27/09 A2965 RMK A01 T02660090  RH  033%=      5-min Rain = 0
KPD4 181716Z 21016KT 26/09 A2964 RMK A01 T02640091  RH  033%=      5-min Rain = 0
KPD4 181717Z 21015KT 26/09 A2964 RMK A01 T02640091  RH  033%=      5-min Rain = 0
KPD4 181718Z 21015KT 26/09 A2964 RMK A01 T02640090  RH  033%=      5-min Rain = 0
KPD4 181719Z 20014KT 27/09 A2964 RMK A01 T02650092  RH  034%=      5-min Rain = 0
KPD4 181720Z 20016KT 27/09 A2964 RMK A01 T02660090  RH  033%=      5-min Rain = 0
KPD4 181721Z 21019G24KT 27/09 A2964 RMK A01 T02650090  RH  033%=      5-min Rain = 0
KPD4 181722Z 21020KT 27/09 A2964 RMK A01 T02650090  RH  033%=      5-min Rain = 0
KPD4 181723Z 21018KT 27/09 A2964 RMK A01 T02660089  RH  033%=      5-min Rain = 0
KPD4 181724Z 22017KT 27/09 A2964 RMK A01 T02670091  RH  033%=      5-min Rain = 0
KPD4 181725Z 23019KT 27/09 A2964 RMK A01 T02690091  RH  033%=      5-min Rain = 0
KPD4 181726Z 23019KT 27/09 A2964 RMK A01 T02690091  RH  033%=      5-min Rain = 0
KPD4 181727Z 21017KT 27/09 A2964 RMK A01 T02680092  RH  033%=      5-min Rain = 0
KPD4 181728Z 21018KT 27/09 A2964 RMK A01 T02700091  RH  032%=      5-min Rain = 0
KPD4 181729Z 20019KT 27/09 A2964 RMK A01 T02670090  RH  033%=      5-min Rain = 0
KPD4 181730Z 20018KT 27/09 A2964 RMK A01 T02670092  RH  033%=      5-min Rain = 0
KPD4 181731Z 21017KT 27/09 A2964 RMK A01 T02680092  RH  033%=      5-min Rain = 0
KPD4 181732Z 21018G24KT 27/09 A2963 RMK A01 T02690093  RH  033%=      5-min Rain = 0
KPD4 181733Z 22018KT 27/09 A2963 RMK A01 T02700093  RH  033%=      5-min Rain = 0
KPD4 181734Z 23020G25KT 27/09 A2963 RMK A01 T02740093  RH  032%=      5-min Rain = 0
KPD4 181735Z 22018G24KT 27/09 A2963 RMK A01 T02740093  RH  032%=      5-min Rain = 0
KPD4 181736Z 22020KT 27/09 A2963 RMK A01 T02740092  RH  032%=      5-min Rain = 0
KPD4 181737Z 22022KT 27/09 A2963 RMK A01 T02740093  RH  032%=      5-min Rain = 0
KPD4 181738Z 23016G22KT 28/09 A2963 RMK A01 T02750093  RH  032%=      5-min Rain = 0
KPD4 181739Z 22019KT 28/09 A2963 RMK A01 T02750093  RH  032%=      5-min Rain = 0
KPD4 181740Z 22017KT 27/09 A2963 RMK A01 T02740094  RH  032%=      5-min Rain = 0
KPD4 181741Z 21014KT 27/09 A2963 RMK A01 T02730094  RH  032%=      5-min Rain = 0
KPD4 181742Z 21018G24KT 27/10 A2963 RMK A01 T02740095  RH  033%=      5-min Rain = 0
KPD4 181743Z 21020KT 28/10 A2963 RMK A01 T02760095  RH  032%=      5-min Rain = 0
KPD4 181744Z 22017KT 28/09 A2963 RMK A01 T02760094  RH  032%=      5-min Rain = 0
KPD4 181745Z 21021KT 28/09 A2963 RMK A01 T02750094  RH  032%=      5-min Rain = 0
KPD4 181746Z 21019KT 28/09 A2963 RMK A01 T02750094  RH  032%=      5-min Rain = 0
KPD4 181747Z 22021KT 28/10 A2963 RMK A01 T02770095  RH  032%=      5-min Rain = 0
KPD4 181748Z 23018KT 28/09 A2963 RMK A01 T02780094  RH  032%=      5-min Rain = 0
KPD4 181749Z 22020G26KT 28/10 A2963 RMK A01 T02790095  RH  032%=      5-min Rain = 0
KPD4 181750Z 23018KT 28/10 A2963 RMK A01 T02790095  RH  031%=      5-min Rain = 0
KPD4 181751Z 23019KT 28/09 A2963 RMK A01 T02780094  RH  031%=      5-min Rain = 0
KPD4 181752Z 23016KT 28/10 A2963 RMK A01 T02780096  RH  032%=      5-min Rain = 0
KPD4 181753Z 23017G22KT 28/10 A2963 RMK A01 T02810097  RH  032%=      5-min Rain = 0
KPD4 181754Z 23017G22KT 28/10 A2963 RMK A01 T02820096  RH  031%=      5-min Rain = 0
KPD4 181755Z 22019KT 28/10 A2963 RMK A01 T02830098  RH  031%=      5-min Rain = 0
KPD4 181756Z 22021KT 28/10 A2962 RMK A01 T02830097  RH  031%=      5-min Rain = 0
KPD4 181757Z 22021KT 28/10 A2962 RMK A01 T02800095  RH  031%=      5-min Rain = 0
KPD4 181758Z 22020KT 28/10 A2962 RMK A01 T02790095  RH  032%=      5-min Rain = 0
KPD4 181759Z 23019KT 28/10 A2962 RMK A01 T02800096  RH  032%=      5-min Rain = 0
KPD4 181800Z 23019KT 28/10 A2962 RMK A01 T02810098  RH  032%=      5-min Rain = 0
KPD4 181801Z 23020KT 28/10 A2962 RMK A01 T02820096  RH  031%=      5-min Rain = 0
KPD4 181802Z 24019KT 28/10 A2962 RMK A01 T02810096  RH  032%=      5-min Rain = 0
KPD4 181803Z 24018KT 28/10 A2963 RMK A01 T02820097  RH  031%=      5-min Rain = 0
KPD4 181804Z 24019KT 28/10 A2962 RMK A01 T02810095  RH  031%=      5-min Rain = 0
KPD4 181805Z 23020KT 28/10 A2962 RMK A01 T02790097  RH  032%=      5-min Rain = 0
KPD4 181806Z 22019KT 28/10 A2962 RMK A01 T02800097  RH  032%=      5-min Rain = 0
KPD4 181807Z 22017KT 28/10 A2962 RMK A01 T02820100  RH  032%=      5-min Rain = 0
KPD4 181808Z 22017KT 28/10 A2962 RMK A01 T02840100  RH  032%=      5-min Rain = 0
KPD4 181809Z 23017KT 28/10 A2962 RMK A01 T02840099  RH  031%=      5-min Rain = 0
KPD4 181810Z 24019KT 28/10 A2962 RMK A01 T02840099  RH  032%=      5-min Rain = 0
KPD4 181811Z 23015KT 29/10 A2962 RMK A01 T02850101  RH  032%=      5-min Rain = 0
KPD4 181812Z 23015KT 29/10 A2962 RMK A01 T02860099  RH  031%=      5-min Rain = 0
KPD4 181813Z 22020KT 28/10 A2962 RMK A01 T02840100  RH  032%=      5-min Rain = 0
KPD4 181814Z 23022KT 28/10 A2962 RMK A01 T02840098  RH  031%=      5-min Rain = 0
KPD4 181815Z 22018KT 28/10 A2962 RMK A01 T02840098  RH  031%=      5-min Rain = 0
KPD4 181816Z 24018KT 28/10 A2962 RMK A01 T02830099  RH  032%=      5-min Rain = 0
KPD4 181817Z 24015KT 28/10 A2962 RMK A01 T02810099  RH  032%=      5-min Rain = 0
KPD4 181818Z 24019KT 28/10 A2962 RMK A01 T02820100  RH  032%=      5-min Rain = 0
KPD4 181819Z 23013KT 28/10 A2962 RMK A01 T02830101  RH  032%=      5-min Rain = 0
KPD4 181820Z 23018KT 29/10 A2962 RMK A01 T02890103  RH  031%=      5-min Rain = 0
KPD4 181821Z 21019KT 29/10 A2961 RMK A01 T02910101  RH  031%=      5-min Rain = 0
KPD4 181822Z 21021KT 29/10 A2961 RMK A01 T02890100  RH  031%=      5-min Rain = 0
KPD4 181823Z 22015G21KT 29/10 A2961 RMK A01 T02860099  RH  031%=      5-min Rain = 0
KPD4 181824Z 21017G24KT 29/10 A2961 RMK A01 T02860099  RH  031%=      5-min Rain = 0
KPD4 181825Z 20021KT 29/10 A2961 RMK A01 T02880100  RH  031%=      5-min Rain = 0
KPD4 181826Z 21021G27KT 29/10 A2961 RMK A01 T02880099  RH  031%=      5-min Rain = 0
KPD4 181827Z 21018KT 29/10 A2961 RMK A01 T02860099  RH  031%=      5-min Rain = 0
KPD4 181828Z 21019KT 29/10 A2961 RMK A01 T02870098  RH  031%=      5-min Rain = 0
KPD4 181829Z 22019KT 29/10 A2961 RMK A01 T02870098  RH  031%=      5-min Rain = 0
KPD4 181830Z 21017KT 29/10 A2961 RMK A01 T02860098  RH  031%=      5-min Rain = 0
KPD4 181831Z 22017KT 29/10 A2961 RMK A01 T02860099  RH  031%=      5-min Rain = 0
KPD4 181832Z 21014KT 29/10 A2961 RMK A01 T02890100  RH  031%=      5-min Rain = 0
KPD4 181833Z 22017G23KT 29/10 A296 RMK A01 T02910100  RH  030%=      5-min Rain = 0
KPD4 181834Z 22019KT 29/10 A296 RMK A01 T02920099  RH  030%=      5-min Rain = 0
KPD4 181835Z 21018G24KT 29/10 A296 RMK A01 T02920100  RH  030%=      5-min Rain = 0
KPD4 181836Z 21018KT 29/10 A296 RMK A01 T02910098  RH  030%=      5-min Rain = 0
KPD4 181837Z 22016KT 29/10 A296 RMK A01 T02880098  RH  030%=      5-min Rain = 0
KPD4 181838Z 23018KT 29/10 A296 RMK A01 T02860098  RH  031%=      5-min Rain = 0
KPD4 181839Z 23021KT 29/10 A296 RMK A01 T02880099  RH  031%=      5-min Rain = 0
KPD4 181840Z 23016KT 29/10 A296 RMK A01 T02880097  RH  030%=      5-min Rain = 0
KPD4 181841Z 21011KT 29/10 A296 RMK A01 T02890101  RH  031%=      5-min Rain = 0
KPD4 181842Z 21017G23KT 29/10 A296 RMK A01 T02940103  RH  031%=      5-min Rain = 0
KPD4 181843Z 21017KT 30/10 A296 RMK A01 T02960098  RH  029%=      5-min Rain = 0
KPD4 181844Z 22017G22KT 29/10 A296 RMK A01 T02930098  RH  030%=      5-min Rain = 0
KPD4 181845Z 22018KT 29/10 A296 RMK A01 T02920096  RH  030%=      5-min Rain = 0
KPD4 181846Z 23017KT 29/10 A2959 RMK A01 T02910095  RH  030%=      5-min Rain = 0
KPD4 181847Z 22014KT 29/10 A2959 RMK A01 T02890098  RH  030%=      5-min Rain = 0
KPD4 181848Z 22018KT 29/10 A2959 RMK A01 T02920098  RH  030%=      5-min Rain = 0
KPD4 181849Z 22018KT 29/10 A2959 RMK A01 T02930096  RH  029%=      5-min Rain = 0
KPD4 181850Z 22013KT 29/10 A2959 RMK A01 T02930097  RH  030%=      5-min Rain = 0
KPD4 181851Z 21016KT 29/10 A2959 RMK A01 T02930098  RH  030%=      5-min Rain = 0
KPD4 181852Z 20016KT 29/10 A2959 RMK A01 T02930096  RH  029%=      5-min Rain = 0
KPD4 181853Z 21017KT 29/10 A2959 RMK A01 T02910096  RH  030%=      5-min Rain = 0
KPD4 181854Z 21016G21KT 29/10 A2959 RMK A01 T02900095  RH  030%=      5-min Rain = 0
KPD4 181855Z 21015KT 29/10 A2959 RMK A01 T02890095  RH  030%=      5-min Rain = 0
KPD4 181856Z 20016KT 29/09 A2959 RMK A01 T02900094  RH  030%=      5-min Rain = 0
KPD4 181857Z 22016KT 29/10 A2959 RMK A01 T02900095  RH  030%=      5-min Rain = 0
KPD4 181858Z 21016G21KT 29/10 A2958 RMK A01 T02890095  RH  030%=      5-min Rain = 0
KPD4 181859Z 21016G23KT 29/09 A2958 RMK A01 T02890094  RH  030%=      5-min Rain = 0
KPD4 181900Z 22016G22KT 29/09 A2959 RMK A01 T02910094  RH  029%=      5-min Rain = 0
KPD4 181901Z 23013KT 29/09 A2958 RMK A01 T02930094  RH  029%=      5-min Rain = 0
KPD4 181902Z 22012KT 29/10 A2958 RMK A01 T02930096  RH  029%=      5-min Rain = 0
KPD4 181903Z 23011KT 29/10 A2958 RMK A01 T02940096  RH  029%=      5-min Rain = 0
KPD4 181904Z 21017KT 29/10 A2958 RMK A01 T02940097  RH  029%=      5-min Rain = 0
KPD4 181905Z 21014KT 30/10 A2958 RMK A01 T02950097  RH  029%=      5-min Rain = 0
KPD4 181906Z 21016KT 30/10 A2958 RMK A01 T02980099  RH  029%=      5-min Rain = 0
KPD4 181907Z 21016KT 30/10 A2958 RMK A01 T02980096  RH  028%=      5-min Rain = 0
KPD4 181908Z 23016KT 30/10 A2958 RMK A01 T02960096  RH  029%=      5-min Rain = 0
KPD4 181909Z 25018KT 29/10 A2958 RMK A01 T02940097  RH  029%=      5-min Rain = 0
KPD4 181910Z 21014KT 29/10 A2958 RMK A01 T02930098  RH  030%=      5-min Rain = 0
KPD4 181911Z 20017KT 29/10 A2958 RMK A01 T02930097  RH  029%=      5-min Rain = 0
KPD4 181912Z 19017KT 29/10 A2958 RMK A01 T02930095  RH  029%=      5-min Rain = 0
KPD4 181913Z 18013KT 29/10 A2958 RMK A01 T02930095  RH  029%=      5-min Rain = 0
KPD4 181914Z 19015KT 29/10 A2958 RMK A01 T02930097  RH  030%=      5-min Rain = 0
KPD4 181915Z 20015KT 29/10 A2958 RMK A01 T02940096  RH  029%=      5-min Rain = 0
KPD4 181916Z 21013KT 29/10 A2958 RMK A01 T02930097  RH  029%=      5-min Rain = 0
KPD4 181917Z 21014KT 29/10 A2957 RMK A01 T02940096  RH  029%=      5-min Rain = 0
KPD4 181918Z 21013G18KT 30/10 A2957 RMK A01 T02950096  RH  029%=      5-min Rain = 0
KPD4 181919Z 21014KT 30/10 A2957 RMK A01 T02980097  RH  029%=      5-min Rain = 0
KPD4 181920Z 21010G15KT 30/09 A2957 RMK A01 T03000093  RH  028%=      5-min Rain = 0
KPD4 181921Z 21009KT 30/09 A2957 RMK A01 T02970092  RH  028%=      5-min Rain = 0
KPD4 181922Z 20012KT 30/09 A2957 RMK A01 T02950093  RH  028%=      5-min Rain = 0
KPD4 181923Z 19013KT 30/09 A2957 RMK A01 T02950093  RH  028%=      5-min Rain = 0
KPD4 181924Z 21013KT 30/10 A2957 RMK A01 T02990096  RH  028%=      5-min Rain = 0
KPD4 181925Z 20014KT 30/10 A2957 RMK A01 T03000096  RH  028%=      5-min Rain = 0
KPD4 181926Z 20018KT 30/10 A2957 RMK A01 T03010096  RH  028%=      5-min Rain = 0
KPD4 181927Z 20015KT 30/10 A2957 RMK A01 T02970095  RH  028%=      5-min Rain = 0
KPD4 181928Z 20013KT 30/09 A2957 RMK A01 T02950094  RH  029%=      5-min Rain = 0
KPD4 181929Z 19014KT 29/09 A2957 RMK A01 T02940092  RH  028%=      5-min Rain = 0
KPD4 181930Z 19016KT 30/09 A2957 RMK A01 T02950092  RH  028%=      5-min Rain = 0
KPD4 181931Z 19018KT 30/09 A2957 RMK A01 T02960090  RH  028%=      5-min Rain = 0
KPD4 181932Z 19016KT 29/09 A2957 RMK A01 T02940089  RH  028%=      5-min Rain = 0
KPD4 181933Z 19016KT 29/09 A2957 RMK A01 T02930093  RH  029%=      5-min Rain = 0
KPD4 181934Z 19015G20KT 30/10 A2957 RMK A01 T02960095  RH  028%=      5-min Rain = 0
KPD4 181935Z 19016KT 30/10 A2957 RMK A01 T02960095  RH  029%=      5-min Rain = 0
KPD4 181936Z 19018KT 30/10 A2957 RMK A01 T02960096  RH  029%=      5-min Rain = 0
KPD4 181937Z 20015KT 30/09 A2957 RMK A01 T02960094  RH  029%=      5-min Rain = 0
KPD4 181938Z 19014KT 30/10 A2956 RMK A01 T02950097  RH  029%=      5-min Rain = 0
KPD4 181939Z 19015KT 30/10 A2956 RMK A01 T02980098  RH  029%=      5-min Rain = 0
KPD4 181940Z 21017KT 30/10 A2956 RMK A01 T02980098  RH  029%=      5-min Rain = 0
KPD4 181941Z 19016KT 30/10 A2956 RMK A01 T02970098  RH  029%=      5-min Rain = 0
KPD4 181942Z 18019KT 30/10 A2956 RMK A01 T02970097  RH  029%=      5-min Rain = 0
KPD4 181943Z 19017KT 30/10 A2956 RMK A01 T02970098  RH  029%=      5-min Rain = 0
KPD4 181944Z 19015KT 30/10 A2956 RMK A01 T02960098  RH  029%=      5-min Rain = 0
KPD4 181945Z 18014G19KT 30/10 A2956 RMK A01 T02950098  RH  029%=      5-min Rain = 0
KPD4 181946Z 18016KT 30/10 A2956 RMK A01 T02970099  RH  029%=      5-min Rain = 0
KPD4 181947Z 18014KT 30/10 A2956 RMK A01 T02970096  RH  029%=      5-min Rain = 0
KPD4 181948Z 17013KT 29/10 A2956 RMK A01 T02940097  RH  029%=      5-min Rain = 0
KPD4 181949Z 19015G20KT 30/10 A2956 RMK A01 T02970099  RH  029%=      5-min Rain = 0
KPD4 181950Z 18018KT 30/10 A2956 RMK A01 T03010099  RH  029%=      5-min Rain = 0
KPD4 181951Z 18017G22KT 30/10 A2956 RMK A01 T03010099  RH  029%=      5-min Rain = 0
KPD4 181952Z 19018G25KT 30/10 A2956 RMK A01 T03020097  RH  028%=      5-min Rain = 0
KPD4 181953Z 19019KT 30/09 A2956 RMK A01 T03030094  RH  027%=      5-min Rain = 0
KPD4 181954Z 20018KT 30/09 A2956 RMK A01 T02980093  RH  028%=      5-min Rain = 0
KPD4 181955Z 20013KT 30/10 A2956 RMK A01 T02960095  RH  028%=      5-min Rain = 0
KPD4 181956Z 19016KT 30/10 A2956 RMK A01 T02970097  RH  029%=      5-min Rain = 0
KPD4 181957Z 18013KT 30/10 A2956 RMK A01 T02980097  RH  029%=      5-min Rain = 0
KPD4 181958Z 20017KT 30/09 A2956 RMK A01 T03010094  RH  028%=      5-min Rain = 0
KPD4 181959Z 19018KT 30/09 A2955 RMK A01 T03020091  RH  027%=      5-min Rain = 0
KPD4 182000Z 19018KT 30/09 A2955 RMK A01 T03020090  RH  027%=      5-min Rain = 0
KPD4 182001Z 20016KT 30/09 A2955 RMK A01 T03010091  RH  027%=      5-min Rain = 0
KPD4 182002Z 20019KT 30/09 A2955 RMK A01 T03020091  RH  027%=      5-min Rain = 0
KPD4 182003Z 21018G23KT 30/09 A2955 RMK A01 T03000091  RH  027%=      5-min Rain = 0
KPD4 182004Z 19018KT 30/09 A2955 RMK A01 T03000091  RH  027%=      5-min Rain = 0
KPD4 182005Z 19014G21KT 30/09 A2955 RMK A01 T03000091  RH  027%=      5-min Rain = 0
KPD4 182006Z 19016KT 30/09 A2955 RMK A01 T02980090  RH  027%=      5-min Rain = 0
KPD4 182007Z 19015KT 30/09 A2955 RMK A01 T02980092  RH  028%=      5-min Rain = 0
KPD4 182008Z 19017KT 30/09 A2955 RMK A01 T02980092  RH  028%=      5-min Rain = 0
KPD4 182009Z 18017KT 30/09 A2955 RMK A01 T02990092  RH  028%=      5-min Rain = 0
KPD4 182010Z 18017KT 30/09 A2955 RMK A01 T03000094  RH  028%=      5-min Rain = 0
KPD4 182011Z 20020KT 30/09 A2955 RMK A01 T03010091  RH  027%=      5-min Rain = 0
KPD4 182012Z 21018KT 30/08 A2955 RMK A01 T03030082  RH  025%=      5-min Rain = 0
KPD4 182013Z 21019KT 30/08 A2955 RMK A01 T03030078  RH  025%=      5-min Rain = 0
KPD4 182014Z 21017KT 30/08 A2955 RMK A01 T03020078  RH  025%=      5-min Rain = 0
KPD4 182015Z 21012KT 30/08 A2955 RMK A01 T03010081  RH  025%=      5-min Rain = 0
KPD4 182016Z 22018KT 31/09 A2955 RMK A01 T03050087  RH  026%=      5-min Rain = 0
KPD4 182017Z 22018KT 31/09 A2955 RMK A01 T03080087  RH  025%=      5-min Rain = 0
KPD4 182018Z 22016KT 31/09 A2955 RMK A01 T03060087  RH  026%=      5-min Rain = 0
KPD4 182019Z 22014KT 30/09 A2955 RMK A01 T03040086  RH  026%=      5-min Rain = 0
KPD4 182020Z 21015G23KT 30/09 A2955 RMK A01 T03030087  RH  026%=      5-min Rain = 0
KPD4 182021Z 19016G22KT 31/09 A2955 RMK A01 T03050090  RH  026%=      5-min Rain = 0
KPD4 182022Z 19018KT 31/09 A2954 RMK A01 T03080088  RH  026%=      5-min Rain = 0
KPD4 182023Z 20021KT 31/09 A2954 RMK A01 T03080086  RH  025%=      5-min Rain = 0
KPD4 182024Z 20018G25KT 30/08 A2955 RMK A01 T03030082  RH  025%=      5-min Rain = 0
KPD4 182025Z 20020KT 30/08 A2955 RMK A01 T02970080  RH  026%=      5-min Rain = 0
KPD4 182026Z 21020KT 29/08 A2954 RMK A01 T02910078  RH  026%=      5-min Rain = 0
KPD4 182027Z 21018KT 29/08 A2954 RMK A01 T02880080  RH  027%=      5-min Rain = 0
KPD4 182028Z 21020KT 29/09 A2954 RMK A01 T02870086  RH  028%=      5-min Rain = 0
KPD4 182029Z 20017KT 29/09 A2955 RMK A01 T02850090  RH  029%=      5-min Rain = 0
KPD4 182030Z 18013G18KT 28/09 A2954 RMK A01 T02840093  RH  030%=      5-min Rain = 0
KPD4 182031Z 17018KT 28/09 A2954 RMK A01 T02820094  RH  031%=      5-min Rain = 0
KPD4 182032Z 18014KT 28/09 A2955 RMK A01 T02810094  RH  031%=      5-min Rain = 0
KPD4 182033Z 19014KT 28/10 A2955 RMK A01 T02800095  RH  031%=      5-min Rain = 0
KPD4 182034Z 19016KT 28/09 A2955 RMK A01 T02800094  RH  031%=      5-min Rain = 0
KPD4 182035Z 19017KT 28/09 A2955 RMK A01 T02800094  RH  031%=      5-min Rain = 0
KPD4 182036Z 19016KT 28/09 A2955 RMK A01 T02790094  RH  031%=      5-min Rain = 0
KPD4 182037Z 18016KT 28/09 A2954 RMK A01 T02790094  RH  031%=      5-min Rain = 0
KPD4 182038Z 18015KT 28/10 A2954 RMK A01 T02800095  RH  031%=      5-min Rain = 0
KPD4 182039Z 19019KT 28/10 A2954 RMK A01 T02810095  RH  031%=      5-min Rain = 0
KPD4 182040Z 19018KT 28/09 A2954 RMK A01 T02810094  RH  031%=      5-min Rain = 0
KPD4 182041Z 19015KT 28/10 A2955 RMK A01 T02830095  RH  031%=      5-min Rain = 0
KPD4 182042Z 19015KT 29/10 A2955 RMK A01 T02860096  RH  031%=      5-min Rain = 0
KPD4 182043Z 19017KT 29/10 A2954 RMK A01 T02860095  RH  030%=      5-min Rain = 0
KPD4 182044Z 19015KT 29/10 A2954 RMK A01 T02890096  RH  030%=      5-min Rain = 0
KPD4 182045Z 19015KT 30/10 A2954 RMK A01 T02950097  RH  029%=      5-min Rain = 0
KPD4 182046Z 19016KT 30/10 A2954 RMK A01 T02980097  RH  029%=      5-min Rain = 0
KPD4 182047Z 19020KT 30/10 A2954 RMK A01 T02990096  RH  028%=      5-min Rain = 0
KPD4 182048Z 19019KT 30/09 A2954 RMK A01 T02960093  RH  028%=      5-min Rain = 0
KPD4 182049Z 19020G25KT 29/09 A2954 RMK A01 T02910090  RH  028%=      5-min Rain = 0
KPD4 182050Z 19018G23KT 29/09 A2954 RMK A01 T02870090  RH  029%=      5-min Rain = 0
KPD4 182051Z 19017KT 29/09 A2954 RMK A01 T02850091  RH  030%=      5-min Rain = 0
KPD4 182052Z 19016KT 28/09 A2954 RMK A01 T02830091  RH  030%=      5-min Rain = 0
KPD4 182053Z 19016KT 28/09 A2954 RMK A01 T02840094  RH  030%=      5-min Rain = 0
KPD4 182054Z 19016KT 29/10 A2954 RMK A01 T02860096  RH  030%=      5-min Rain = 0
KPD4 182055Z 19014KT 29/10 A2954 RMK A01 T02900097  RH  030%=      5-min Rain = 0
KPD4 182056Z 18017G23KT 30/10 A2954 RMK A01 T02960099  RH  030%=      5-min Rain = 0
KPD4 182057Z 18019KT 30/10 A2954 RMK A01 T02990097  RH  028%=      5-min Rain = 0
KPD4 182058Z 19018G23KT 30/10 A2954 RMK A01 T02990096  RH  028%=      5-min Rain = 0
KPD4 182059Z 18017KT 30/10 A2954 RMK A01 T02990097  RH  028%=      5-min Rain = 0
KPD4 182100Z 19016KT 30/10 A2954 RMK A01 T03000097  RH  028%=      5-min Rain = 0
KPD4 182101Z 19020KT 30/10 A2954 RMK A01 T03000095  RH  028%=      5-min Rain = 0
KPD4 182102Z 19018KT 29/09 A2954 RMK A01 T02940092  RH  028%=      5-min Rain = 0
KPD4 182103Z 19016KT 29/09 A2954 RMK A01 T02890091  RH  029%=      5-min Rain = 0
KPD4 182104Z 19015KT 29/09 A2954 RMK A01 T02870091  RH  029%=      5-min Rain = 0
KPD4 182105Z 19016KT 29/09 A2954 RMK A01 T02860092  RH  030%=      5-min Rain = 0
KPD4 182106Z 19017KT 29/09 A2954 RMK A01 T02850092  RH  030%=      5-min Rain = 0
KPD4 182107Z 19017KT 29/09 A2954 RMK A01 T02860093  RH  030%=      5-min Rain = 0
KPD4 182108Z 18019KT 29/09 A2954 RMK A01 T02900094  RH  029%=      5-min Rain = 0
KPD4 182109Z 19021KT 29/10 A2954 RMK A01 T02940096  RH  029%=      5-min Rain = 0
KPD4 182110Z 19019KT 30/10 A2954 RMK A01 T02960095  RH  028%=      5-min Rain = 0
KPD4 182111Z 19019KT 30/10 A2954 RMK A01 T02970095  RH  028%=      5-min Rain = 0
KPD4 182112Z 18018G24KT 30/10 A2954 RMK A01 T02990097  RH  029%=      5-min Rain = 0
KPD4 182113Z 19017KT 30/10 A2954 RMK A01 T03010096  RH  028%=      5-min Rain = 0
KPD4 182114Z 19016G22KT 30/10 A2954 RMK A01 T03000095  RH  028%=      5-min Rain = 0
KPD4 182115Z 19016KT 30/09 A2954 RMK A01 T02980092  RH  028%=      5-min Rain = 0
KPD4 182116Z 19019KT 29/09 A2954 RMK A01 T02940091  RH  028%=      5-min Rain = 0
KPD4 182117Z 20019KT 29/09 A2954 RMK A01 T02890091  RH  029%=      5-min Rain = 0
KPD4 182118Z 21019G24KT 29/09 A2954 RMK A01 T02880092  RH  029%=      5-min Rain = 0
KPD4 182119Z 20017KT 29/09 A2954 RMK A01 T02890093  RH  029%=      5-min Rain = 0
KPD4 182120Z 20017KT 29/10 A2954 RMK A01 T02930095  RH  029%=      5-min Rain = 0
KPD4 182121Z 20015KT 30/10 A2954 RMK A01 T02980097  RH  029%=      5-min Rain = 0
KPD4 182122Z 20014KT 30/10 A2954 RMK A01 T03010098  RH  028%=      5-min Rain = 0
KPD4 182123Z 19012KT 30/10 A2954 RMK A01 T03040101  RH  029%=      5-min Rain = 0
KPD4 182124Z 18014KT 31/10 A2954 RMK A01 T03080102  RH  028%=      5-min Rain = 0
KPD4 182125Z 19018KT 30/11 A2954 RMK A01 T03030107  RH  030%=      5-min Rain = 0
KPD4 182126Z 18015KT 30/11 A2954 RMK A01 T02960113  RH  032%=      5-min Rain = 0
KPD4 182127Z 18015KT 30/12 A2954 RMK A01 T02950117  RH  033%=      5-min Rain = 0
KPD4 182128Z 18016KT 30/12 A2954 RMK A01 T02950118  RH  034%=      5-min Rain = 0
KPD4 182129Z 17016KT 29/12 A2954 RMK A01 T02940119  RH  034%=      5-min Rain = 0
KPD4 182130Z 18016KT 29/12 A2954 RMK A01 T02920119  RH  034%=      5-min Rain = 0
KPD4 182131Z 18019KT 29/12 A2954 RMK A01 T02910118  RH  034%=      5-min Rain = 0
KPD4 182132Z 18017KT 28/12 A2954 RMK A01 T02840115  RH  035%=      5-min Rain = 0
KPD4 182133Z 18014KT 28/12 A2954 RMK A01 T02790115  RH  036%=      5-min Rain = 0
KPD4 182134Z 18012KT 28/12 A2955 RMK A01 T02770117  RH  037%=      5-min Rain = 0
KPD4 182135Z 18015G20KT 28/12 A2955 RMK A01 T02770118  RH  037%=      5-min Rain = 0
KPD4 182136Z 18014G19KT 28/12 A2955 RMK A01 T02800120  RH  037%=      5-min Rain = 0
KPD4 182137Z 17013KT 29/12 A2954 RMK A01 T02860121  RH  036%=      5-min Rain = 0
KPD4 182138Z 16014G19KT 29/12 A2954 RMK A01 T02900122  RH  035%=      5-min Rain = 0
KPD4 182139Z 16016KT 29/12 A2954 RMK A01 T02920121  RH  035%=      5-min Rain = 0
KPD4 182140Z 16018G23KT 29/12 A2953 RMK A01 T02930116  RH  033%=      5-min Rain = 0
KPD4 182141Z 19016G21KT 29/11 A2954 RMK A01 T02940109  RH  032%=      5-min Rain = 0
KPD4 182142Z 20015G22KT 30/11 A2954 RMK A01 T02970109  RH  031%=      5-min Rain = 0
KPD4 182143Z 20020KT 30/11 A2953 RMK A01 T02980106  RH  030%=      5-min Rain = 0
KPD4 182144Z 19015KT 29/10 A2954 RMK A01 T02940104  RH  031%=      5-min Rain = 0
KPD4 182145Z 19015G20KT 29/11 A2954 RMK A01 T02930106  RH  031%=      5-min Rain = 0
KPD4 182146Z 19015KT 29/11 A2954 RMK A01 T02930105  RH  031%=      5-min Rain = 0
KPD4 182147Z 19014KT 29/11 A2954 RMK A01 T02910106  RH  032%=      5-min Rain = 0
KPD4 182148Z 20014KT 29/11 A2954 RMK A01 T02900107  RH  032%=      5-min Rain = 0
KPD4 182149Z 20017G22KT 29/11 A2954 RMK A01 T02930109  RH  032%=      5-min Rain = 0
KPD4 182150Z 19016KT 29/11 A2954 RMK A01 T02930109  RH  032%=      5-min Rain = 0
KPD4 182151Z 18016G22KT 29/11 A2954 RMK A01 T02920111  RH  032%=      5-min Rain = 0
KPD4 182152Z 18019KT 29/11 A2954 RMK A01 T02920114  RH  033%=      5-min Rain = 0
KPD4 182153Z 18016KT 29/12 A2954 RMK A01 T02910116  RH  034%=      5-min Rain = 0
KPD4 182154Z 19018G24KT 29/12 A2954 RMK A01 T02920117  RH  034%=      5-min Rain = 0
KPD4 182155Z 19021KT 29/11 A2954 RMK A01 T02930114  RH  033%=      5-min Rain = 0
KPD4 182156Z 19019KT 29/11 A2954 RMK A01 T02920114  RH  033%=      5-min Rain = 0
KPD4 182157Z 18021KT 29/12 A2954 RMK A01 T02900117  RH  034%=      5-min Rain = 0
KPD4 182158Z 18023KT 29/12 A2954 RMK A01 T02870116  RH  035%=      5-min Rain = 0
KPD4 182159Z 18020KT 29/12 A2954 RMK A01 T02850117  RH  035%=      5-min Rain = 0
KPD4 182200Z 18016G21KT 28/12 A2954 RMK A01 T02840117  RH  036%=      5-min Rain = 0
KPD4 182201Z 17023KT 29/12 A2954 RMK A01 T02850117  RH  035%=      5-min Rain = 0
KPD4 182202Z 17022KT 28/12 A2954 RMK A01 T02830116  RH  035%=      5-min Rain = 0
KPD4 182203Z 17021KT 28/12 A2954 RMK A01 T02820115  RH  036%=      5-min Rain = 0
KPD4 182204Z 18018KT 28/12 A2954 RMK A01 T02810116  RH  036%=      5-min Rain = 0
KPD4 182205Z 18021KT 28/12 A2954 RMK A01 T02810117  RH  036%=      5-min Rain = 0
KPD4 182206Z 18019KT 28/12 A2954 RMK A01 T02820117  RH  036%=      5-min Rain = 0
KPD4 182207Z 18018KT 28/12 A2954 RMK A01 T02830117  RH  036%=      5-min Rain = 0
KPD4 182208Z 17017KT 28/12 A2954 RMK A01 T02830115  RH  035%=      5-min Rain = 0
KPD4 182209Z 18015KT 28/12 A2954 RMK A01 T02830115  RH  035%=      5-min Rain = 0
KPD4 182210Z 18016G21KT 28/12 A2954 RMK A01 T02830115  RH  035%=      5-min Rain = 0
KPD4 182211Z 18017KT 28/11 A2954 RMK A01 T02840114  RH  035%=      5-min Rain = 0
KPD4 182212Z 18015KT 28/12 A2954 RMK A01 T02840116  RH  035%=      5-min Rain = 0
KPD4 182213Z 18014KT 29/12 A2954 RMK A01 T02850117  RH  035%=      5-min Rain = 0
KPD4 182214Z 18016G21KT 29/12 A2954 RMK A01 T02870116  RH  035%=      5-min Rain = 0
KPD4 182215Z 18018KT 29/12 A2954 RMK A01 T02870115  RH  034%=      5-min Rain = 0
KPD4 182216Z 18018KT 29/11 A2954 RMK A01 T02850113  RH  034%=      5-min Rain = 0
KPD4 182217Z 20019KT 28/11 A2954 RMK A01 T02840113  RH  035%=      5-min Rain = 0
KPD4 182218Z 19016KT 28/11 A2954 RMK A01 T02830113  RH  035%=      5-min Rain = 0
KPD4 182219Z 18018KT 28/11 A2954 RMK A01 T02830114  RH  035%=      5-min Rain = 0
KPD4 182220Z 18017KT 28/11 A2954 RMK A01 T02830113  RH  035%=      5-min Rain = 0
KPD4 182221Z 18021KT 28/11 A2954 RMK A01 T02820111  RH  034%=      5-min Rain = 0
KPD4 182222Z 18020KT 28/11 A2954 RMK A01 T02820111  RH  034%=      5-min Rain = 0
KPD4 182223Z 18019KT 28/11 A2954 RMK A01 T02810110  RH  034%=      5-min Rain = 0
KPD4 182224Z 18015KT 28/11 A2954 RMK A01 T02810112  RH  035%=      5-min Rain = 0
KPD4 182225Z 18015KT 28/11 A2954 RMK A01 T02810113  RH  035%=      5-min Rain = 0
KPD4 182226Z 17018KT 28/11 A2954 RMK A01 T02820112  RH  035%=      5-min Rain = 0
KPD4 182227Z 18016KT 28/11 A2954 RMK A01 T02820113  RH  035%=      5-min Rain = 0
KPD4 182228Z 18019KT 28/11 A2954 RMK A01 T02810112  RH  035%=      5-min Rain = 0
KPD4 182229Z 18017KT 28/11 A2954 RMK A01 T02810112  RH  035%=      5-min Rain = 0
KPD4 182230Z 19018KT 28/11 A2954 RMK A01 T02810112  RH  035%=      5-min Rain = 0
KPD4 182231Z 17017KT 28/11 A2954 RMK A01 T02820112  RH  035%=      5-min Rain = 0
KPD4 182232Z 18014KT 28/11 A2954 RMK A01 T02820112  RH  035%=      5-min Rain = 0
KPD4 182233Z 19017KT 28/11 A2954 RMK A01 T02840110  RH  034%=      5-min Rain = 0
KPD4 182234Z 18015KT 28/11 A2954 RMK A01 T02840109  RH  034%=      5-min Rain = 0
KPD4 182235Z 18015KT 28/11 A2954 RMK A01 T02840112  RH  034%=      5-min Rain = 0
KPD4 182236Z 18013KT 28/11 A2954 RMK A01 T02830113  RH  035%=      5-min Rain = 0
KPD4 182237Z 18011KT 28/11 A2954 RMK A01 T02830113  RH  035%=      5-min Rain = 0
KPD4 182238Z 18014KT 28/11 A2954 RMK A01 T02830112  RH  034%=      5-min Rain = 0
KPD4 182239Z 19015KT 28/11 A2954 RMK A01 T02840111  RH  034%=      5-min Rain = 0
KPD4 182240Z 18017KT 28/11 A2954 RMK A01 T02840107  RH  033%=      5-min Rain = 0
KPD4 182241Z 19019KT 28/11 A2954 RMK A01 T02830105  RH  033%=      5-min Rain = 0
KPD4 182242Z 20018KT 28/10 A2954 RMK A01 T02820103  RH  033%=      5-min Rain = 0
KPD4 182243Z 20014KT 28/10 A2954 RMK A01 T02820104  RH  033%=      5-min Rain = 0
KPD4 182244Z 20014G19KT 28/11 A2954 RMK A01 T02820105  RH  033%=      5-min Rain = 0
KPD4 182245Z 19018KT 28/10 A2954 RMK A01 T02820102  RH  033%=      5-min Rain = 0
KPD4 182246Z 19015KT 28/10 A2954 RMK A01 T02820101  RH  032%=      5-min Rain = 0
KPD4 182247Z 19015KT 28/10 A2954 RMK A01 T02820102  RH  032%=      5-min Rain = 0
KPD4 182248Z 20017KT 28/10 A2954 RMK A01 T02820101  RH  032%=      5-min Rain = 0
KPD4 182249Z 20016KT 28/10 A2954 RMK A01 T02820100  RH  032%=      5-min Rain = 0
KPD4 182250Z 21013KT 28/10 A2954 RMK A01 T02820099  RH  032%=      5-min Rain = 0
KPD4 182251Z 22018G23KT 28/09 A2954 RMK A01 T02820085  RH  029%=      5-min Rain = 0
KPD4 182252Z 21018KT 28/06 A2954 RMK A01 T02840058  RH  024%=      5-min Rain = 0
KPD4 182253Z 22017G22KT 29/06 A2954 RMK A01 T02860055  RH  023%=      5-min Rain = 0
KPD4 182254Z 23019KT 29/04 A2954 RMK A01 T02860043  RH  021%=      5-min Rain = 0
KPD4 182255Z 22021G26KT 29/04 A2954 RMK A01 T02870040  RH  021%=      5-min Rain = 0
KPD4 182256Z 22021G27KT 29/03 A2954 RMK A01 T02870033  RH  020%=      5-min Rain = 0
KPD4 182257Z 22018G23KT 29/03 A2954 RMK A01 T02870033  RH  020%=      5-min Rain = 0
KPD4 182258Z 23020G25KT 29/03 A2954 RMK A01 T02870031  RH  019%=      5-min Rain = 0
KPD4 182259Z 22019KT 29/03 A2954 RMK A01 T02870032  RH  019%=      5-min Rain = 0
KPD4 182300Z 23018KT 29/03 A2954 RMK A01 T02870032  RH  020%=      5-min Rain = 0
KPD4 182301Z 22020KT 29/03 A2954 RMK A01 T02860032  RH  020%=      5-min Rain = 0
KPD4 182302Z 22020KT 29/03 A2954 RMK A01 T02860032  RH  020%=      5-min Rain = 0
KPD4 182303Z 22017KT 29/03 A2954 RMK A01 T02860033  RH  020%=      5-min Rain = 0
KPD4 182304Z 22016KT 29/03 A2954 RMK A01 T02850034  RH  020%=      5-min Rain = 0
KPD4 182305Z 22016KT 29/04 A2954 RMK A01 T02850035  RH  020%=      5-min Rain = 0
KPD4 182306Z 22017KT 29/04 A2954 RMK A01 T02850036  RH  020%=      5-min Rain = 0
KPD4 182307Z 22018KT 29/04 A2954 RMK A01 T02850035  RH  020%=      5-min Rain = 0
KPD4 182308Z 22016KT 28/04 A2954 RMK A01 T02840035  RH  020%=      5-min Rain = 0
KPD4 182309Z 22018KT 28/04 A2954 RMK A01 T02840035  RH  020%=      5-min Rain = 0
KPD4 182310Z 21020KT 28/03 A2954 RMK A01 T02840033  RH  020%=      5-min Rain = 0
KPD4 182311Z 22018KT 28/03 A2954 RMK A01 T02840033  RH  020%=      5-min Rain = 0
KPD4 182312Z 22016KT 28/03 A2954 RMK A01 T02830034  RH  020%=      5-min Rain = 0
KPD4 182313Z 22016KT 28/03 A2954 RMK A01 T02830034  RH  020%=      5-min Rain = 0
KPD4 182314Z 23015KT 28/04 A2954 RMK A01 T02830035  RH  020%=      5-min Rain = 0
KPD4 182315Z 22016KT 28/04 A2955 RMK A01 T02820035  RH  021%=      5-min Rain = 0
KPD4 182316Z 22015KT 28/03 A2955 RMK A01 T02810034  RH  020%=      5-min Rain = 0
KPD4 182317Z 22015KT 28/04 A2955 RMK A01 T02810035  RH  021%=      5-min Rain = 0
KPD4 182318Z 22018KT 28/03 A2954 RMK A01 T02800034  RH  021%=      5-min Rain = 0
KPD4 182319Z 22016KT 28/03 A2955 RMK A01 T02800034  RH  021%=      5-min Rain = 0
KPD4 182320Z 22014KT 28/04 A2954 RMK A01 T02800035  RH  021%=      5-min Rain = 0
KPD4 182321Z 21015KT 28/03 A2955 RMK A01 T02790034  RH  021%=      5-min Rain = 0
KPD4 182322Z 21013KT 28/04 A2955 RMK A01 T02790035  RH  021%=      5-min Rain = 0
KPD4 182323Z 22015KT 28/04 A2955 RMK A01 T02780036  RH  021%=      5-min Rain = 0
KPD4 182324Z 22015KT 28/04 A2954 RMK A01 T02780035  RH  021%=      5-min Rain = 0
KPD4 182325Z 21012KT 28/04 A2955 RMK A01 T02780036  RH  021%=      5-min Rain = 0
KPD4 182326Z 21011KT 28/04 A2955 RMK A01 T02760036  RH  021%=      5-min Rain = 0
KPD4 182327Z 21013KT 28/04 A2954 RMK A01 T02750036  RH  022%=      5-min Rain = 0
KPD4 182328Z 22015KT 27/04 A2954 RMK A01 T02740035  RH  022%=      5-min Rain = 0
KPD4 182329Z 21014KT 27/04 A2955 RMK A01 T02740036  RH  022%=      5-min Rain = 0
KPD4 182330Z 21012KT 27/04 A2955 RMK A01 T02740036  RH  022%=      5-min Rain = 0
KPD4 182331Z 21012KT 27/04 A2955 RMK A01 T02730037  RH  022%=      5-min Rain = 0
KPD4 182332Z 21013KT 27/04 A2955 RMK A01 T02720037  RH  022%=      5-min Rain = 0
KPD4 182333Z 21013KT 27/04 A2955 RMK A01 T02710036  RH  022%=      5-min Rain = 0
KPD4 182334Z 21011KT 27/04 A2955 RMK A01 T02710037  RH  022%=      5-min Rain = 0
KPD4 182335Z 21013KT 27/04 A2955 RMK A01 T02700037  RH  022%=      5-min Rain = 0
KPD4 182336Z 21012KT 27/04 A2955 RMK A01 T02700037  RH  022%=      5-min Rain = 0
KPD4 182337Z 21012KT 27/04 A2955 RMK A01 T02690037  RH  022%=      5-min Rain = 0
KPD4 182338Z 21011KT 27/04 A2955 RMK A01 T02690037  RH  023%=      5-min Rain = 0
KPD4 182339Z 21010KT 27/04 A2955 RMK A01 T02680037  RH  023%=      5-min Rain = 0
KPD4 182340Z 21011KT 27/04 A2955 RMK A01 T02670038  RH  023%=      5-min Rain = 0
KPD4 182341Z 21011KT 27/04 A2955 RMK A01 T02660038  RH  023%=      5-min Rain = 0
KPD4 182342Z 21012KT 27/04 A2955 RMK A01 T02650037  RH  023%=      5-min Rain = 0
KPD4 182343Z 21011KT 27/04 A2955 RMK A01 T02650037  RH  023%=      5-min Rain = 0
KPD4 182344Z 21011KT 27/04 A2955 RMK A01 T02650037  RH  023%=      5-min Rain = 0
KPD4 182345Z 21011KT 26/04 A2955 RMK A01 T02640038  RH  023%=      5-min Rain = 0
KPD4 182346Z 20011KT 26/04 A2955 RMK A01 T02640038  RH  023%=      5-min Rain = 0
KPD4 182347Z 20011KT 26/04 A2955 RMK A01 T02630038  RH  024%=      5-min Rain = 0
KPD4 182348Z 20011KT 26/04 A2955 RMK A01 T02620038  RH  024%=      5-min Rain = 0
KPD4 182349Z 20010KT 26/04 A2955 RMK A01 T02610039  RH  024%=      5-min Rain = 0
KPD4 182350Z 20011KT 26/04 A2955 RMK A01 T02600039  RH  024%=      5-min Rain = 0
KPD4 182351Z 20010KT 26/04 A2955 RMK A01 T02590039  RH  024%=      5-min Rain = 0
KPD4 182352Z 20011KT 26/04 A2954 RMK A01 T02580039  RH  024%=      5-min Rain = 0
KPD4 182353Z 20010KT 26/04 A2955 RMK A01 T02570039  RH  025%=      5-min Rain = 0
KPD4 182354Z 20010KT 26/04 A2955 RMK A01 T02550039  RH  025%=      5-min Rain = 0
KPD4 182355Z 20010KT 25/04 A2955 RMK A01 T02540039  RH  025%=      5-min Rain = 0
KPD4 182356Z 20010KT 25/04 A2955 RMK A01 T02530040  RH  025%=      5-min Rain = 0
KPD4 182357Z 20009KT 25/04 A2955 RMK A01 T02530040  RH  025%=      5-min Rain = 0
KPD4 182358Z 20009KT 25/04 A2955 RMK A01 T02510040  RH  025%=      5-min Rain = 0
KPD4 182359Z 20009KT 25/04 A2955 RMK A01 T02500040  RH  026%=      5-min Rain = 0
KPD4 190000Z 20009KT 25/04 A2955 RMK A01 T02480040  RH  026%=      5-min Rain = 0
KPD4 190001Z 20008KT 25/04 A2955 RMK A01 T02470040  RH  026%=      5-min Rain = 0
KPD4 190002Z 20008KT 25/04 A2955 RMK A01 T02450040  RH  026%=      5-min Rain = 0
KPD4 190003Z 21009KT 24/04 A2955 RMK A01 T02440040  RH  027%=      5-min Rain = 0
KPD4 190004Z 21008KT 24/04 A2955 RMK A01 T02440041  RH  027%=      5-min Rain = 0
KPD4 190005Z 21009KT 24/04 A2955 RMK A01 T02440041  RH  027%=      5-min Rain = 0
KPD4 190006Z 21009KT 24/04 A2955 RMK A01 T02430041  RH  027%=      5-min Rain = 0
KPD4 190007Z 21010KT 24/04 A2955 RMK A01 T02430041  RH  027%=      5-min Rain = 0
KPD4 190008Z 21010KT 24/04 A2955 RMK A01 T02430041  RH  027%=      5-min Rain = 0
KPD4 190009Z 21010KT 24/04 A2955 RMK A01 T02430041  RH  027%=      5-min Rain = 0
KPD4 190010Z 21009KT 24/04 A2955 RMK A01 T02430041  RH  027%=      5-min Rain = 0
KPD4 190011Z 21009KT 24/04 A2955 RMK A01 T02420042  RH  027%=      5-min Rain = 0
KPD4 190012Z 21010KT 24/04 A2955 RMK A01 T02420042  RH  027%=      5-min Rain = 0
KPD4 190013Z 21009KT 24/04 A2955 RMK A01 T02420043  RH  028%=      5-min Rain = 0
KPD4 190014Z 21009KT 24/04 A2955 RMK A01 T02420043  RH  028%=      5-min Rain = 0
KPD4 190015Z 21009KT 24/04 A2955 RMK A01 T02410043  RH  028%=      5-min Rain = 0
KPD4 190016Z 21010KT 24/04 A2955 RMK A01 T02410044  RH  028%=      5-min Rain = 0
KPD4 190017Z 21010KT 24/04 A2955 RMK A01 T02410044  RH  028%=      5-min Rain = 0
KPD4 190018Z 21010KT 24/05 A2955 RMK A01 T02400045  RH  028%=      5-min Rain = 0
KPD4 190019Z 21010KT 24/05 A2956 RMK A01 T02390045  RH  028%=      5-min Rain = 0
KPD4 190020Z 21009KT 24/05 A2956 RMK A01 T02390045  RH  028%=      5-min Rain = 0
KPD4 190021Z 20009KT 24/05 A2956 RMK A01 T02370045  RH  029%=      5-min Rain = 0
KPD4 190022Z 21010KT 24/05 A2956 RMK A01 T02350045  RH  029%=      5-min Rain = 0
KPD4 190023Z 20009KT 23/04 A2956 RMK A01 T02330044  RH  029%=      5-min Rain = 0
KPD4 190024Z 21009KT 23/05 A2956 RMK A01 T02320045  RH  030%=      5-min Rain = 0
KPD4 190025Z 20008KT 23/05 A2956 RMK A01 T02310046  RH  030%=      5-min Rain = 0
KPD4 190026Z 20009KT 23/05 A2956 RMK A01 T02300045  RH  030%=      5-min Rain = 0
KPD4 190027Z 20009KT 23/05 A2956 RMK A01 T02290046  RH  030%=      5-min Rain = 0
KPD4 190028Z 20009KT 23/05 A2956 RMK A01 T02270046  RH  031%=      5-min Rain = 0
KPD4 190029Z 20008KT 23/05 A2956 RMK A01 T02260046  RH  031%=      5-min Rain = 0
KPD4 190030Z 20008KT 23/05 A2956 RMK A01 T02250047  RH  031%=      5-min Rain = 0
KPD4 190031Z 20008KT 22/05 A2956 RMK A01 T02230047  RH  032%=      5-min Rain = 0
KPD4 190032Z 20008KT 22/05 A2956 RMK A01 T02230047  RH  032%=      5-min Rain = 0
KPD4 190033Z 20008KT 22/05 A2956 RMK A01 T02210047  RH  032%=      5-min Rain = 0
KPD4 190034Z 20009KT 22/05 A2956 RMK A01 T02200047  RH  032%=      5-min Rain = 0
KPD4 190035Z 20008KT 22/05 A2956 RMK A01 T02190048  RH  033%=      5-min Rain = 0
KPD4 190036Z 21008KT 22/05 A2956 RMK A01 T02180048  RH  033%=      5-min Rain = 0
KPD4 190037Z 21008KT 22/05 A2956 RMK A01 T02170049  RH  033%=      5-min Rain = 0
KPD4 190038Z 21008KT 22/05 A2956 RMK A01 T02160049  RH  034%=      5-min Rain = 0
KPD4 190039Z 20009KT 22/05 A2956 RMK A01 T02150049  RH  034%=      5-min Rain = 0
KPD4 190040Z 20009KT 22/05 A2956 RMK A01 T02160049  RH  034%=      5-min Rain = 0
KPD4 190041Z 21008KT 22/05 A2956 RMK A01 T02160049  RH  034%=      5-min Rain = 0
KPD4 190042Z 21008KT 22/05 A2956 RMK A01 T02160049  RH  034%=      5-min Rain = 0
KPD4 190043Z 21008KT 22/05 A2956 RMK A01 T02150050  RH  034%=      5-min Rain = 0
KPD4 190044Z 21008KT 21/05 A2956 RMK A01 T02140050  RH  034%=      5-min Rain = 0
KPD4 190045Z 21008KT 21/05 A2956 RMK A01 T02140050  RH  034%=      5-min Rain = 0
KPD4 190046Z 21008KT 21/05 A2956 RMK A01 T02130050  RH  034%=      5-min Rain = 0
KPD4 190047Z 21008KT 21/05 A2956 RMK A01 T02130050  RH  034%=      5-min Rain = 0
KPD4 190048Z 21008KT 21/05 A2956 RMK A01 T02130050  RH  034%=      5-min Rain = 0
KPD4 190049Z 21008KT 21/05 A2956 RMK A01 T02120050  RH  035%=      5-min Rain = 0
KPD4 190050Z 21008KT 21/05 A2956 RMK A01 T02100050  RH  035%=      5-min Rain = 0
KPD4 190051Z 21008KT 21/05 A2956 RMK A01 T02100050  RH  035%=      5-min Rain = 0
KPD4 190052Z 21008KT 21/05 A2957 RMK A01 T02080050  RH  035%=      5-min Rain = 0
KPD4 190053Z 21008KT 21/05 A2957 RMK A01 T02070050  RH  036%=      5-min Rain = 0
KPD4 190054Z 21008KT 21/05 A2957 RMK A01 T02050050  RH  036%=      5-min Rain = 0
KPD4 190055Z 21007KT 20/05 A2957 RMK A01 T02040050  RH  036%=      5-min Rain = 0
KPD4 190056Z 21007KT 20/05 A2957 RMK A01 T02020049  RH  037%=      5-min Rain = 0
KPD4 190057Z 21007KT 20/05 A2957 RMK A01 T02010050  RH  037%=      5-min Rain = 0
KPD4 190058Z 22007KT 20/05 A2957 RMK A01 T02000050  RH  037%=      5-min Rain = 0
KPD4 190059Z 21007KT 20/05 A2957 RMK A01 T02000051  RH  038%=      5-min Rain = 0
KPD4 190100Z 21007KT 20/05 A2957 RMK A01 T01990051  RH  038%=      5-min Rain = 0
KPD4 190101Z 21007KT 20/05 A2957 RMK A01 T01980051  RH  038%=      5-min Rain = 0
KPD4 190102Z 21007KT 20/05 A2957 RMK A01 T01980052  RH  038%=      5-min Rain = 0
KPD4 190103Z 22008KT 20/05 A2957 RMK A01 T01970052  RH  039%=      5-min Rain = 0
KPD4 190104Z 22008KT 20/05 A2957 RMK A01 T01970053  RH  039%=      5-min Rain = 0
KPD4 190105Z 21009KT 20/05 A2957 RMK A01 T01970053  RH  039%=      5-min Rain = 0
KPD4 190106Z 22009KT 20/05 A2957 RMK A01 T01970053  RH  039%=      5-min Rain = 0
KPD4 190107Z 22009KT 20/05 A2957 RMK A01 T01980053  RH  039%=      5-min Rain = 0
KPD4 190108Z 22009KT 20/05 A2957 RMK A01 T01970053  RH  039%=      5-min Rain = 0
KPD4 190109Z 22010KT 20/05 A2957 RMK A01 T01980052  RH  038%=      5-min Rain = 0
KPD4 190110Z 22010KT 20/05 A2957 RMK A01 T02000052  RH  038%=      5-min Rain = 0
KPD4 190111Z 22011KT 20/05 A2957 RMK A01 T02010050  RH  037%=      5-min Rain = 0
KPD4 190112Z 22011KT 20/05 A2957 RMK A01 T02030048  RH  036%=      5-min Rain = 0
KPD4 190113Z 22011KT 21/05 A2957 RMK A01 T02060046  RH  035%=      5-min Rain = 0
KPD4 190114Z 22011KT 21/05 A2957 RMK A01 T02100045  RH  034%=      5-min Rain = 0
KPD4 190115Z 22011KT 21/04 A2957 RMK A01 T02100043  RH  033%=      5-min Rain = 0
KPD4 190116Z 22010KT 21/04 A2957 RMK A01 T02100042  RH  033%=      5-min Rain = 0
KPD4 190117Z 22010KT 21/04 A2957 RMK A01 T02100042  RH  033%=      5-min Rain = 0
KPD4 190118Z 22010KT 21/04 A2957 RMK A01 T02080041  RH  033%=      5-min Rain = 0
KPD4 190119Z 22010KT 21/04 A2957 RMK A01 T02060040  RH  033%=      5-min Rain = 0
KPD4 190120Z 22009KT 21/04 A2957 RMK A01 T02050040  RH  034%=      5-min Rain = 0
KPD4 190121Z 22010KT 20/04 A2958 RMK A01 T02030039  RH  034%=      5-min Rain = 0
KPD4 190122Z 22010KT 20/04 A2958 RMK A01 T02020038  RH  034%=      5-min Rain = 0
KPD4 190123Z 22010KT 20/04 A2958 RMK A01 T02010037  RH  034%=      5-min Rain = 0
KPD4 190124Z 22010KT 20/04 A2958 RMK A01 T02000036  RH  034%=      5-min Rain = 0
KPD4 190125Z 22009KT 20/04 A2958 RMK A01 T02000036  RH  034%=      5-min Rain = 0
KPD4 190126Z 23009KT 20/03 A2958 RMK A01 T01990033  RH  033%=      5-min Rain = 0
KPD4 190127Z 22009KT 20/03 A2958 RMK A01 T01990032  RH  033%=      5-min Rain = 0
KPD4 190128Z 23009KT 20/03 A2958 RMK A01 T01990031  RH  033%=      5-min Rain = 0
KPD4 190129Z 23010KT 20/03 A2958 RMK A01 T01990030  RH  033%=      5-min Rain = 0
KPD4 190130Z 22009KT 20/03 A2958 RMK A01 T01980028  RH  032%=      5-min Rain = 0
KPD4 190131Z 22010KT 20/03 A2958 RMK A01 T01990027  RH  032%=      5-min Rain = 0
KPD4 190132Z 22010KT 20/03 A2958 RMK A01 T01980026  RH  032%=      5-min Rain = 0
KPD4 190133Z 22010KT 20/02 A2958 RMK A01 T01980024  RH  031%=      5-min Rain = 0
KPD4 190134Z 22010KT 20/02 A2958 RMK A01 T01990023  RH  031%=      5-min Rain = 0
KPD4 190135Z 22009KT 20/02 A2958 RMK A01 T02000023  RH  031%=      5-min Rain = 0
KPD4 190136Z 22009KT 20/02 A2958 RMK A01 T02010023  RH  031%=      5-min Rain = 0
KPD4 190137Z 22008KT 20/02 A2958 RMK A01 T02000023  RH  031%=      5-min Rain = 0
KPD4 190138Z 22009KT 20/02 A2958 RMK A01 T01990024  RH  031%=      5-min Rain = 0
KPD4 190139Z 22010KT 20/02 A2958 RMK A01 T01980021  RH  031%=      5-min Rain = 0
KPD4 190140Z 23010KT 20/02 A2958 RMK A01 T01990019  RH  030%=      5-min Rain = 0
KPD4 190141Z 23010KT 20/02 A2958 RMK A01 T02010016  RH  029%=      5-min Rain = 0
KPD4 190142Z 23011KT 20/02 A2958 RMK A01 T02040016  RH  029%=      5-min Rain = 0
KPD4 190143Z 23011KT 21/02 A2958 RMK A01 T02060015  RH  028%=      5-min Rain = 0
KPD4 190144Z 23012KT 21/01 A2958 RMK A01 T02080014  RH  027%=      5-min Rain = 0
KPD4 190145Z 23011KT 21/01 A2958 RMK A01 T02100012  RH  027%=      5-min Rain = 0
KPD4 190146Z 23012KT 21/01 A2958 RMK A01 T02120010  RH  026%=      5-min Rain = 0
KPD4 190147Z 23012KT 22/01 A2958 RMK A01 T02150010  RH  026%=      5-min Rain = 0
KPD4 190148Z 24013KT 22/01 A2958 RMK A01 T02160008  RH  025%=      5-min Rain = 0
KPD4 190149Z 24012KT 22/01 A2958 RMK A01 T02180008  RH  025%=      5-min Rain = 0
KPD4 190150Z 24014KT 22/01 A2958 RMK A01 T02190007  RH  024%=      5-min Rain = 0
KPD4 190151Z 24015KT 22/01 A2958 RMK A01 T02200006  RH  024%=      5-min Rain = 0
KPD4 190152Z 24015KT 22/01 A2958 RMK A01 T02210006  RH  024%=      5-min Rain = 0
KPD4 190153Z 24015KT 22/01 A2959 RMK A01 T02220006  RH  024%=      5-min Rain = 0
KPD4 190154Z 24013KT 22/01 A2959 RMK A01 T02220006  RH  024%=      5-min Rain = 0
KPD4 190155Z 25014KT 22/01 A2959 RMK A01 T02220005  RH  024%=      5-min Rain = 0
KPD4 190156Z 24016KT 22/01 A2959 RMK A01 T02220005  RH  024%=      5-min Rain = 0
KPD4 190157Z 24014KT 22/00 A2959 RMK A01 T02220004  RH  023%=      5-min Rain = 0
KPD4 190158Z 24014KT 22/00 A2959 RMK A01 T02230004  RH  023%=      5-min Rain = 0
KPD4 190159Z 24013KT 22/01 A2959 RMK A01 T02220005  RH  024%=      5-min Rain = 0
KPD4 190200Z 24015KT 22/00 A2959 RMK A01 T02210003  RH  023%=      5-min Rain = 0
KPD4 190201Z 24015KT 22/00 A2959 RMK A01 T02220004  RH  023%=      5-min Rain = 0
KPD4 190202Z 24014KT 22/00 A2959 RMK A01 T02220003  RH  023%=      5-min Rain = 0
KPD4 190203Z 24014KT 22/00 A2959 RMK A01 T02220004  RH  023%=      5-min Rain = 0
KPD4 190204Z 24014KT 22/00 A2959 RMK A01 T02210004  RH  024%=      5-min Rain = 0
KPD4 190205Z 24014KT 22/00 A2959 RMK A01 T02200004  RH  024%=      5-min Rain = 0
KPD4 190206Z 24015KT 22/00 A2959 RMK A01 T02200004  RH  024%=      5-min Rain = 0
KPD4 190207Z 24014KT 22/00 A2959 RMK A01 T02200004  RH  024%=      5-min Rain = 0
KPD4 190208Z 24015KT 22/00 A2959 RMK A01 T02190004  RH  024%=      5-min Rain = 0
KPD4 190209Z 24013KT 22/00 A2959 RMK A01 T02190004  RH  024%=      5-min Rain = 0
KPD4 190210Z 24014KT 22/00 A2959 RMK A01 T02180004  RH  024%=      5-min Rain = 0
KPD4 190211Z 25015KT 22/00 A2959 RMK A01 T02170004  RH  024%=      5-min Rain = 0
KPD4 190212Z 25016KT 22/01 A2959 RMK A01 T02170005  RH  024%=      5-min Rain = 0
KPD4 190213Z 25015KT 22/00 A2959 RMK A01 T02160004  RH  024%=      5-min Rain = 0
KPD4 190214Z 25016KT 22/00 A2959 RMK A01 T02170004  RH  024%=      5-min Rain = 0
KPD4 190215Z 25016KT 22/00 A2959 RMK A01 T02170004  RH  024%=      5-min Rain = 0
KPD4 190216Z 25016KT 22/00 A2959 RMK A01 T02170003  RH  024%=      5-min Rain = 0
KPD4 190217Z 25015KT 22/00 A2959 RMK A01 T02180003  RH  024%=      5-min Rain = 0
KPD4 190218Z 25016KT 22/00 A2959 RMK A01 T02180003  RH  024%=      5-min Rain = 0
KPD4 190219Z 25016KT 22/00 A2959 RMK A01 T02180003  RH  024%=      5-min Rain = 0
KPD4 190220Z 25017KT 22/00 A2959 RMK A01 T02180003  RH  024%=      5-min Rain = 0
KPD4 190221Z 25016KT 22/00 A2959 RMK A01 T02180002  RH  024%=      5-min Rain = 0
KPD4 190222Z 25017KT 22/00 A2959 RMK A01 T02190002  RH  024%=      5-min Rain = 0
KPD4 190223Z 25017KT 22/00 A2959 RMK A01 T02190002  RH  024%=      5-min Rain = 0
KPD4 190224Z 25016KT 22/00 A2959 RMK A01 T02190002  RH  024%=      5-min Rain = 0
KPD4 190225Z 25018KT 22/00 A2959 RMK A01 T02200001  RH  023%=      5-min Rain = 0
KPD4 190226Z 25018KT 22/00 A2959 RMK A01 T02220001  RH  023%=      5-min Rain = 0
KPD4 190227Z 25017KT 22/00 A2959 RMK A01 T02230001  RH  023%=      5-min Rain = 0
KPD4 190228Z 25019KT 22/00 A2959 RMK A01 T02220000  RH  023%=      5-min Rain = 0
KPD4 190229Z 25018KT 22/00 A2959 RMK A01 T02230000  RH  023%=      5-min Rain = 0
KPD4 190230Z 25019KT 22/M00 A2959 RMK A01 T02241001  RH  022%=      5-min Rain = 0
KPD4 190231Z 25019KT 23/00 A2959 RMK A01 T022500-0  RH  022%=      5-min Rain = 0
KPD4 190232Z 26017KT 23/00 A296 RMK A01 T022600-0  RH  022%=      5-min Rain = 0
KPD4 190233Z 26016KT 23/00 A296 RMK A01 T022600-0  RH  022%=      5-min Rain = 0
KPD4 190234Z 27015KT 23/00 A2961 RMK A01 T022500-0  RH  022%=      5-min Rain = 0
KPD4 190235Z 28017G22KT 23/M00 A2961 RMK A01 T02251001  RH  022%=      5-min Rain = 0
KPD4 190236Z 28021KT 23/M00 A2961 RMK A01 T02261003  RH  022%=      5-min Rain = 0
KPD4 190237Z 28019KT 23/M00 A2961 RMK A01 T02301003  RH  021%=      5-min Rain = 0
KPD4 190238Z 29017KT 23/M00 A2961 RMK A01 T02311002  RH  021%=      5-min Rain = 0
KPD4 190239Z 29017KT 23/M00 A2962 RMK A01 T02291001  RH  022%=      5-min Rain = 0
KPD4 190240Z 29020G25KT 23/M00 A2962 RMK A01 T02281001  RH  022%=      5-min Rain = 0
KPD4 190241Z 31022G28KT 23/00 A2962 RMK A01 T02270001  RH  022%=      5-min Rain = 0
KPD4 190242Z 31023KT 23/01 A2962 RMK A01 T02250011  RH  024%=      5-min Rain = 0
KPD4 190243Z 31018G23KT 22/02 A2962 RMK A01 T02220016  RH  026%=      5-min Rain = 0
KPD4 190244Z 33023G29KT 22/02 A2962 RMK A01 T02190019  RH  027%=      5-min Rain = 0
KPD4 190245Z 33023KT 22/02 A2962 RMK A01 T02170023  RH  028%=      5-min Rain = 0
KPD4 190246Z 34020KT 21/03 A2963 RMK A01 T02140025  RH  029%=      5-min Rain = 0
KPD4 190247Z 34021G29KT 21/03 A2963 RMK A01 T02110027  RH  030%=      5-min Rain = 0
KPD4 190248Z 34023KT 21/03 A2963 RMK A01 T02090028  RH  030%=      5-min Rain = 0
KPD4 190249Z 34022G27KT 21/03 A2963 RMK A01 T02080028  RH  031%=      5-min Rain = 0
KPD4 190250Z 34023KT 21/03 A2963 RMK A01 T02060029  RH  031%=      5-min Rain = 0
KPD4 190251Z 35021KT 21/03 A2963 RMK A01 T02050030  RH  031%=      5-min Rain = 0
KPD4 190252Z 35022KT 20/03 A2963 RMK A01 T02040031  RH  032%=      5-min Rain = 0
KPD4 190253Z 35023KT 20/03 A2963 RMK A01 T02030031  RH  032%=      5-min Rain = 0
KPD4 190254Z 35026G34KT 20/03 A2963 RMK A01 T02020032  RH  032%=      5-min Rain = 0
KPD4 190255Z 35026G32KT 20/03 A2963 RMK A01 T02010032  RH  033%=      5-min Rain = 0
KPD4 190256Z 35023KT 20/03 A2963 RMK A01 T02000033  RH  033%=      5-min Rain = 0
KPD4 190257Z 36022G27KT 20/03 A2963 RMK A01 T02000033  RH  033%=      5-min Rain = 0
KPD4 190258Z 35026G31KT 20/04 A2963 RMK A01 T01980035  RH  034%=      5-min Rain = 0
KPD4 190259Z 35025G30KT 20/04 A2963 RMK A01 T01980035  RH  034%=      5-min Rain = 0
KPD4 190300Z 36024G34KT 20/04 A2963 RMK A01 T01970036  RH  034%=      5-min Rain = 0
KPD4 190301Z 00025G32KT 20/04 A2963 RMK A01 T01960036  RH  035%=      5-min Rain = 0
KPD4 190302Z 36026G31KT 20/04 A2963 RMK A01 T01960037  RH  035%=      5-min Rain = 0
KPD4 190303Z 36024KT 20/04 A2963 RMK A01 T01960037  RH  035%=      5-min Rain = 0
KPD4 190304Z 36022KT 20/04 A2964 RMK A01 T01950037  RH  035%=      5-min Rain = 0
KPD4 190305Z 01023G30KT 19/04 A2964 RMK A01 T01940038  RH  036%=      5-min Rain = 0
KPD4 190306Z 00018KT 19/04 A2964 RMK A01 T01930038  RH  036%=      5-min Rain = 0
KPD4 190307Z 01024KT 19/04 A2964 RMK A01 T01930039  RH  036%=      5-min Rain = 0
KPD4 190308Z 01023KT 19/04 A2964 RMK A01 T01920039  RH  036%=      5-min Rain = 0
KPD4 190309Z 01021G27KT 19/04 A2964 RMK A01 T01920039  RH  036%=      5-min Rain = 0
KPD4 190310Z 01025G31KT 19/04 A2964 RMK A01 T01920038  RH  036%=      5-min Rain = 0
KPD4 190311Z 01022KT 19/04 A2964 RMK A01 T01920038  RH  036%=      5-min Rain = 0
KPD4 190312Z 01023G28KT 19/04 A2964 RMK A01 T01920038  RH  036%=      5-min Rain = 0
KPD4 190313Z 01021G28KT 19/04 A2964 RMK A01 T01910037  RH  036%=      5-min Rain = 0
KPD4 190314Z 01022G29KT 19/04 A2964 RMK A01 T01900036  RH  036%=      5-min Rain = 0
KPD4 190315Z 01024KT 19/04 A2964 RMK A01 T01900035  RH  036%=      5-min Rain = 0
KPD4 190316Z 01024KT 19/03 A2964 RMK A01 T01910034  RH  035%=      5-min Rain = 0
KPD4 190317Z 01027KT 19/03 A2964 RMK A01 T01900033  RH  035%=      5-min Rain = 0
KPD4 190318Z 01024G30KT 19/03 A2964 RMK A01 T01900033  RH  035%=      5-min Rain = 0
KPD4 190319Z 01022KT 19/03 A2965 RMK A01 T01890032  RH  035%=      5-min Rain = 0
KPD4 190320Z 01019KT 19/03 A2965 RMK A01 T01890032  RH  035%=      5-min Rain = 0
KPD4 190321Z 01024G29KT 19/03 A2965 RMK A01 T01880032  RH  036%=      5-min Rain = 0
KPD4 190322Z 01024G31KT 19/03 A2965 RMK A01 T01880032  RH  035%=      5-min Rain = 0
KPD4 190323Z 01027G33KT 19/03 A2965 RMK A01 T01870031  RH  035%=      5-min Rain = 0
KPD4 190324Z 01025KT 19/03 A2965 RMK A01 T01870031  RH  035%=      5-min Rain = 0
KPD4 190325Z 01025KT 19/03 A2965 RMK A01 T01870031  RH  035%=      5-min Rain = 0
KPD4 190326Z 00021G26KT 19/03 A2966 RMK A01 T01860031  RH  036%=      5-min Rain = 0
KPD4 190327Z 01025G32KT 19/03 A2966 RMK A01 T01860031  RH  036%=      5-min Rain = 0
KPD4 190328Z 00021G28KT 19/03 A2966 RMK A01 T01850031  RH  036%=      5-min Rain = 0
KPD4 190329Z 01024G29KT 19/03 A2966 RMK A01 T01850031  RH  036%=      5-min Rain = 0
KPD4 190330Z 01024G30KT 19/03 A2966 RMK A01 T01850031  RH  036%=      5-min Rain = 0
KPD4 190331Z 01025G30KT 18/03 A2966 RMK A01 T01840031  RH  036%=      5-min Rain = 0
KPD4 190332Z 01023KT 19/03 A2966 RMK A01 T01850031  RH  036%=      5-min Rain = 0
KPD4 190333Z 01023G28KT 18/03 A2966 RMK A01 T01840031  RH  036%=      5-min Rain = 0
KPD4 190334Z 01024KT 18/03 A2966 RMK A01 T01830031  RH  036%=      5-min Rain = 0
KPD4 190335Z 01022G27KT 18/03 A2967 RMK A01 T01830031  RH  036%=      5-min Rain = 0
KPD4 190336Z 01024G32KT 18/03 A2967 RMK A01 T01820032  RH  037%=      5-min Rain = 0
KPD4 190337Z 01027KT 18/03 A2967 RMK A01 T01820031  RH  037%=      5-min Rain = 0
KPD4 190338Z 01024KT 18/03 A2967 RMK A01 T01820031  RH  036%=      5-min Rain = 0
KPD4 190339Z 01023G29KT 18/03 A2967 RMK A01 T01820031  RH  036%=      5-min Rain = 0
KPD4 190340Z 01024KT 18/03 A2967 RMK A01 T01820031  RH  037%=      5-min Rain = 0
KPD4 190341Z 01024G30KT 18/03 A2967 RMK A01 T01820031  RH  037%=      5-min Rain = 0
KPD4 190342Z 01024G31KT 18/03 A2967 RMK A01 T01820030  RH  036%=      5-min Rain = 0
KPD4 190343Z 01023G32KT 18/03 A2967 RMK A01 T01810030  RH  037%=      5-min Rain = 0
KPD4 190344Z 01029G35KT 18/03 A2967 RMK A01 T01810030  RH  037%=      5-min Rain = 0
KPD4 190345Z 02027G33KT 18/03 A2967 RMK A01 T01810029  RH  036%=      5-min Rain = 0
KPD4 190346Z 02025KT 18/03 A2967 RMK A01 T01810029  RH  036%=      5-min Rain = 0
KPD4 190347Z 01023KT 18/03 A2967 RMK A01 T01810029  RH  036%=      5-min Rain = 0
KPD4 190348Z 02026G34KT 18/03 A2967 RMK A01 T01800029  RH  037%=      5-min Rain = 0
KPD4 190349Z 01025G30KT 18/03 A2968 RMK A01 T01800029  RH  037%=      5-min Rain = 0
KPD4 190350Z 01023KT 18/03 A2968 RMK A01 T01800029  RH  037%=      5-min Rain = 0
KPD4 190351Z 01023KT 18/03 A2968 RMK A01 T01790030  RH  037%=      5-min Rain = 0
KPD4 190352Z 02020G26KT 18/03 A2968 RMK A01 T01790029  RH  037%=      5-min Rain = 0
KPD4 190353Z 01023G29KT 18/03 A2968 RMK A01 T01780029  RH  037%=      5-min Rain = 0
KPD4 190354Z 01026G32KT 18/03 A2969 RMK A01 T01780030  RH  037%=      5-min Rain = 0
KPD4 190355Z 01029G35KT 18/03 A2968 RMK A01 T01780029  RH  037%=      5-min Rain = 0
KPD4 190356Z 01024G32KT 18/03 A2969 RMK A01 T01780029  RH  037%=      5-min Rain = 0
KPD4 190357Z 01023KT 18/03 A2969 RMK A01 T01780030  RH  037%=      5-min Rain = 0
KPD4 190358Z 01019G25KT 18/03 A2969 RMK A01 T01780030  RH  037%=      5-min Rain = 0
KPD4 190359Z 01024G31KT 18/03 A2969 RMK A01 T01770030  RH  037%=      5-min Rain = 0
KPD4 190400Z 01029G34KT 18/03 A2969 RMK A01 T01770029  RH  037%=      5-min Rain = 0
KPD4 190401Z 01022G29KT 18/03 A2969 RMK A01 T01770029  RH  037%=      5-min Rain = 0
KPD4 190402Z 01022G29KT 18/03 A2969 RMK A01 T01760029  RH  037%=      5-min Rain = 0
KPD4 190403Z 02026G33KT 18/03 A2969 RMK A01 T01760029  RH  037%=      5-min Rain = 0
KPD4 190404Z 01026KT 18/03 A2969 RMK A01 T01760029  RH  037%=      5-min Rain = 0
KPD4 190405Z 01023G28KT 18/03 A2969 RMK A01 T01760029  RH  037%=      5-min Rain = 0
KPD4 190406Z 01023KT 18/03 A297 RMK A01 T01760029  RH  038%=      5-min Rain = 0
KPD4 190407Z 01025G30KT 18/03 A297 RMK A01 T01760030  RH  038%=      5-min Rain = 0
KPD4 190408Z 01025G31KT 18/03 A2969 RMK A01 T01750029  RH  038%=      5-min Rain = 0
KPD4 190409Z 02025G30KT 18/03 A297 RMK A01 T01750030  RH  038%=      5-min Rain = 0
KPD4 190410Z 02027KT 18/03 A297 RMK A01 T01750030  RH  038%=      5-min Rain = 0
KPD4 190411Z 01025G30KT 18/03 A297 RMK A01 T01750030  RH  038%=      5-min Rain = 0
KPD4 190412Z 01020G27KT 17/03 A297 RMK A01 T01740030  RH  038%=      5-min Rain = 0
KPD4 190413Z 01023G28KT 17/03 A297 RMK A01 T01740031  RH  038%=      5-min Rain = 0
KPD4 190414Z 01025G31KT 17/03 A297 RMK A01 T01730030  RH  038%=      5-min Rain = 0
KPD4 190415Z 02026G31KT 17/03 A297 RMK A01 T01730030  RH  038%=      5-min Rain = 0
KPD4 190416Z 01021G28KT 17/03 A2971 RMK A01 T01730030  RH  038%=      5-min Rain = 0
KPD4 190417Z 01020G27KT 17/03 A2971 RMK A01 T01720031  RH  039%=      5-min Rain = 0
KPD4 190418Z 02023G28KT 17/03 A2971 RMK A01 T01720030  RH  039%=      5-min Rain = 0
KPD4 190419Z 01022G33KT 17/03 A2971 RMK A01 T01720031  RH  039%=      5-min Rain = 0
KPD4 190420Z 01026G31KT 17/03 A2971 RMK A01 T01710030  RH  039%=      5-min Rain = 0
KPD4 190421Z 01021G30KT 17/03 A2972 RMK A01 T01710031  RH  039%=      5-min Rain = 0
KPD4 190422Z 01021KT 17/03 A2972 RMK A01 T01700031  RH  039%=      5-min Rain = 0
KPD4 190423Z 01020KT 17/03 A2972 RMK A01 T01700031  RH  039%=      5-min Rain = 0
KPD4 190424Z 01020G26KT 17/03 A2972 RMK A01 T01700031  RH  039%=      5-min Rain = 0
KPD4 190425Z 01024G29KT 17/03 A2972 RMK A01 T01690031  RH  039%=      5-min Rain = 0
KPD4 190426Z 01019KT 17/03 A2973 RMK A01 T01690030  RH  039%=      5-min Rain = 0
KPD4 190427Z 00024G29KT 17/03 A2973 RMK A01 T01690031  RH  040%=      5-min Rain = 0
KPD4 190428Z 36021G29KT 17/03 A2973 RMK A01 T01690031  RH  040%=      5-min Rain = 0
KPD4 190429Z 00020G26KT 17/03 A2973 RMK A01 T01690031  RH  040%=      5-min Rain = 0
KPD4 190430Z 00020KT 17/03 A2974 RMK A01 T01690031  RH  040%=      5-min Rain = 0
KPD4 190431Z 36021G26KT 17/03 A2974 RMK A01 T01680031  RH  040%=      5-min Rain = 0
KPD4 190432Z 01017G24KT 17/03 A2974 RMK A01 T01680031  RH  040%=      5-min Rain = 0
KPD4 190433Z 36017G22KT 17/03 A2974 RMK A01 T01680031  RH  040%=      5-min Rain = 0
KPD4 190434Z 36019G24KT 17/03 A2974 RMK A01 T01670031  RH  040%=      5-min Rain = 0
KPD4 190435Z 36021KT 17/03 A2974 RMK A01 T01670031  RH  040%=      5-min Rain = 0
KPD4 190436Z 00021KT 17/03 A2974 RMK A01 T01670031  RH  040%=      5-min Rain = 0
KPD4 190437Z 00019G24KT 17/03 A2975 RMK A01 T01670031  RH  040%=      5-min Rain = 0
KPD4 190438Z 01022KT 17/03 A2975 RMK A01 T01670031  RH  040%=      5-min Rain = 0
KPD4 190439Z 00017KT 17/03 A2975 RMK A01 T01670031  RH  040%=      5-min Rain = 0
KPD4 190440Z 00021KT 17/03 A2975 RMK A01 T01670031  RH  040%=      5-min Rain = 0
KPD4 190441Z 00017KT 17/03 A2975 RMK A01 T01670032  RH  040%=      5-min Rain = 0
KPD4 190442Z 00017G22KT 17/03 A2975 RMK A01 T01660032  RH  041%=      5-min Rain = 0
KPD4 190443Z 01018G26KT 17/03 A2974 RMK A01 T01650032  RH  041%=      5-min Rain = 0
KPD4 190444Z 01016G21KT 17/03 A2974 RMK A01 T01650032  RH  041%=      5-min Rain = 0
KPD4 190445Z 00017G26KT 17/03 A2975 RMK A01 T01650032  RH  041%=      5-min Rain = 0
KPD4 190446Z 00022G29KT 16/03 A2974 RMK A01 T01640032  RH  041%=      5-min Rain = 0
KPD4 190447Z 01019G26KT 16/03 A2975 RMK A01 T01640031  RH  041%=      5-min Rain = 0
KPD4 190448Z 00021G27KT 16/03 A2975 RMK A01 T01640032  RH  041%=      5-min Rain = 0
KPD4 190449Z 00019G24KT 16/03 A2975 RMK A01 T01640031  RH  041%=      5-min Rain = 0
KPD4 190450Z 01019KT 16/03 A2975 RMK A01 T01640032  RH  041%=      5-min Rain = 0
KPD4 190451Z 01019KT 16/03 A2975 RMK A01 T01640032  RH  041%=      5-min Rain = 0
KPD4 190452Z 01019KT 16/03 A2975 RMK A01 T01630031  RH  041%=      5-min Rain = 0
KPD4 190453Z 01021G26KT 16/03 A2975 RMK A01 T01630031  RH  041%=      5-min Rain = 0
KPD4 190454Z 01020KT 16/03 A2975 RMK A01 T01630032  RH  041%=      5-min Rain = 0
KPD4 190455Z 00018G23KT 16/03 A2975 RMK A01 T01630032  RH  041%=      5-min Rain = 0
KPD4 190456Z 00016KT 16/03 A2975 RMK A01 T01620032  RH  042%=      5-min Rain = 0
KPD4 190457Z 00019G26KT 16/03 A2975 RMK A01 T01610032  RH  042%=      5-min Rain = 0
KPD4 190458Z 01017KT 16/03 A2975 RMK A01 T01610031  RH  042%=      5-min Rain = 0
KPD4 190459Z 01018G24KT 16/03 A2975 RMK A01 T01610032  RH  042%=      5-min Rain = 0

Page generated in 0.083 seconds.